<?xml version="1.0" encoding="UTF-8" standalone="no" ?>
<gpx xmlns="http://www.topografix.com/GPX/1/1" xmlns:xsi="http://www.w3.org/2001/XMLSchema-instance" xsi:schemaLocation="http://www.topografix.com/GPX/1/1 http://www.topografix.com/GPX/1/1/gpx.xsd" version="1.1" creator="VisuGPX - https://www.visugpx.com">
  <metadata>
    <name>Chemin Faisant à Saint Laurent D'Arce (reco)</name>
    <desc><![CDATA[Très belle balade en compagnie de nombreux moustiques !]]></desc>
  </metadata>
  <trk>
    <name><![CDATA[2016-05-04 13:18:24]]></name>
    <trkseg>
      <trkpt lat="45.03468" lon="-0.47103">
        <ele>0.62</ele>
        <time>2016-05-04T06:54:08Z</time>
      </trkpt>
      <trkpt lat="45.03467" lon="-0.47103">
        <ele>0.62</ele>
        <time>2016-05-04T06:54:09Z</time>
      </trkpt>
      <trkpt lat="45.03474" lon="-0.47101">
        <ele>0.62</ele>
        <time>2016-05-04T06:54:25Z</time>
      </trkpt>
      <trkpt lat="45.03468" lon="-0.47098">
        <ele>0.62</ele>
        <time>2016-05-04T06:54:51Z</time>
      </trkpt>
      <trkpt lat="45.03465" lon="-0.47101">
        <ele>0.62</ele>
        <time>2016-05-04T06:55:07Z</time>
      </trkpt>
      <trkpt lat="45.03466" lon="-0.47101">
        <ele>0.62</ele>
        <time>2016-05-04T06:55:13Z</time>
      </trkpt>
      <trkpt lat="45.03465" lon="-0.47101">
        <ele>1.1</ele>
        <time>2016-05-04T06:55:26Z</time>
      </trkpt>
      <trkpt lat="45.03467" lon="-0.47101">
        <ele>1.1</ele>
        <time>2016-05-04T06:55:57Z</time>
      </trkpt>
      <trkpt lat="45.03462" lon="-0.47099">
        <ele>1.58</ele>
        <time>2016-05-04T06:56:23Z</time>
      </trkpt>
      <trkpt lat="45.03462" lon="-0.47102">
        <ele>2.06</ele>
        <time>2016-05-04T06:56:54Z</time>
      </trkpt>
      <trkpt lat="45.03462" lon="-0.47101">
        <ele>2.06</ele>
        <time>2016-05-04T06:57:11Z</time>
      </trkpt>
      <trkpt lat="45.03463" lon="-0.471">
        <ele>2.06</ele>
        <time>2016-05-04T06:57:25Z</time>
      </trkpt>
      <trkpt lat="45.03462" lon="-0.47098">
        <ele>2.54</ele>
        <time>2016-05-04T06:57:55Z</time>
      </trkpt>
      <trkpt lat="45.03464" lon="-0.471">
        <ele>2.54</ele>
        <time>2016-05-04T06:58:14Z</time>
      </trkpt>
      <trkpt lat="45.03467" lon="-0.47101">
        <ele>2.54</ele>
        <time>2016-05-04T06:58:18Z</time>
      </trkpt>
      <trkpt lat="45.03477" lon="-0.47109">
        <ele>3.02</ele>
        <time>2016-05-04T06:58:32Z</time>
      </trkpt>
      <trkpt lat="45.03482" lon="-0.47125">
        <ele>3.02</ele>
        <time>2016-05-04T06:58:48Z</time>
      </trkpt>
      <trkpt lat="45.03483" lon="-0.47142">
        <ele>3.02</ele>
        <time>2016-05-04T06:59:04Z</time>
      </trkpt>
      <trkpt lat="45.03487" lon="-0.47143">
        <ele>3.5</ele>
        <time>2016-05-04T06:59:26Z</time>
      </trkpt>
      <trkpt lat="45.03489" lon="-0.47131">
        <ele>3.5</ele>
        <time>2016-05-04T06:59:42Z</time>
      </trkpt>
      <trkpt lat="45.03489" lon="-0.47125">
        <ele>3.98</ele>
        <time>2016-05-04T06:59:51Z</time>
      </trkpt>
      <trkpt lat="45.03488" lon="-0.4711">
        <ele>3.98</ele>
        <time>2016-05-04T07:00:05Z</time>
      </trkpt>
      <trkpt lat="45.03485" lon="-0.47109">
        <ele>3.98</ele>
        <time>2016-05-04T07:00:07Z</time>
      </trkpt>
      <trkpt lat="45.03476" lon="-0.47103">
        <ele>4.46</ele>
        <time>2016-05-04T07:00:14Z</time>
      </trkpt>
      <trkpt lat="45.03455" lon="-0.47099">
        <ele>5.42</ele>
        <time>2016-05-04T07:00:29Z</time>
      </trkpt>
      <trkpt lat="45.03445" lon="-0.47102">
        <ele>5.91</ele>
        <time>2016-05-04T07:00:43Z</time>
      </trkpt>
      <trkpt lat="45.03431" lon="-0.47109">
        <ele>6.87</ele>
        <time>2016-05-04T07:00:57Z</time>
      </trkpt>
      <trkpt lat="45.03413" lon="-0.47102">
        <ele>7.83</ele>
        <time>2016-05-04T07:01:13Z</time>
      </trkpt>
      <trkpt lat="45.034" lon="-0.47102">
        <ele>8.79</ele>
        <time>2016-05-04T07:01:26Z</time>
      </trkpt>
      <trkpt lat="45.03384" lon="-0.47105">
        <ele>10.23</ele>
        <time>2016-05-04T07:01:43Z</time>
      </trkpt>
      <trkpt lat="45.03365" lon="-0.47107">
        <ele>10.23</ele>
        <time>2016-05-04T07:02:01Z</time>
      </trkpt>
      <trkpt lat="45.03345" lon="-0.47106">
        <ele>10.71</ele>
        <time>2016-05-04T07:02:17Z</time>
      </trkpt>
      <trkpt lat="45.03341" lon="-0.47107">
        <ele>10.71</ele>
        <time>2016-05-04T07:02:21Z</time>
      </trkpt>
      <trkpt lat="45.0333" lon="-0.47118">
        <ele>11.19</ele>
        <time>2016-05-04T07:02:34Z</time>
      </trkpt>
      <trkpt lat="45.0333" lon="-0.47139">
        <ele>11.67</ele>
        <time>2016-05-04T07:02:48Z</time>
      </trkpt>
      <trkpt lat="45.03333" lon="-0.4716">
        <ele>11.67</ele>
        <time>2016-05-04T07:03:04Z</time>
      </trkpt>
      <trkpt lat="45.03334" lon="-0.47172">
        <ele>12.15</ele>
        <time>2016-05-04T07:03:17Z</time>
      </trkpt>
      <trkpt lat="45.03336" lon="-0.47196">
        <ele>11.19</ele>
        <time>2016-05-04T07:03:30Z</time>
      </trkpt>
      <trkpt lat="45.0334" lon="-0.47222">
        <ele>10.71</ele>
        <time>2016-05-04T07:03:45Z</time>
      </trkpt>
      <trkpt lat="45.0334" lon="-0.47246">
        <ele>10.23</ele>
        <time>2016-05-04T07:03:58Z</time>
      </trkpt>
      <trkpt lat="45.03338" lon="-0.47272">
        <ele>10.23</ele>
        <time>2016-05-04T07:04:13Z</time>
      </trkpt>
      <trkpt lat="45.03333" lon="-0.47298">
        <ele>10.23</ele>
        <time>2016-05-04T07:04:28Z</time>
      </trkpt>
      <trkpt lat="45.03323" lon="-0.47323">
        <ele>10.71</ele>
        <time>2016-05-04T07:04:44Z</time>
      </trkpt>
      <trkpt lat="45.03311" lon="-0.47354">
        <ele>10.71</ele>
        <time>2016-05-04T07:05:02Z</time>
      </trkpt>
      <trkpt lat="45.03301" lon="-0.47382">
        <ele>11.19</ele>
        <time>2016-05-04T07:05:18Z</time>
      </trkpt>
      <trkpt lat="45.03302" lon="-0.47385">
        <ele>11.19</ele>
        <time>2016-05-04T07:05:28Z</time>
      </trkpt>
      <trkpt lat="45.03285" lon="-0.47405">
        <ele>11.67</ele>
        <time>2016-05-04T07:05:46Z</time>
      </trkpt>
      <trkpt lat="45.03265" lon="-0.47421">
        <ele>11.67</ele>
        <time>2016-05-04T07:06:03Z</time>
      </trkpt>
      <trkpt lat="45.0325" lon="-0.47446">
        <ele>11.19</ele>
        <time>2016-05-04T07:06:20Z</time>
      </trkpt>
      <trkpt lat="45.03245" lon="-0.4748">
        <ele>11.67</ele>
        <time>2016-05-04T07:06:39Z</time>
      </trkpt>
      <trkpt lat="45.03246" lon="-0.47509">
        <ele>11.67</ele>
        <time>2016-05-04T07:06:55Z</time>
      </trkpt>
      <trkpt lat="45.03248" lon="-0.47545">
        <ele>12.15</ele>
        <time>2016-05-04T07:07:15Z</time>
      </trkpt>
      <trkpt lat="45.0325" lon="-0.47577">
        <ele>12.15</ele>
        <time>2016-05-04T07:07:32Z</time>
      </trkpt>
      <trkpt lat="45.03251" lon="-0.47596">
        <ele>13.6</ele>
        <time>2016-05-04T07:07:42Z</time>
      </trkpt>
      <trkpt lat="45.03253" lon="-0.47617">
        <ele>13.6</ele>
        <time>2016-05-04T07:07:54Z</time>
      </trkpt>
      <trkpt lat="45.03254" lon="-0.47624">
        <ele>13.6</ele>
        <time>2016-05-04T07:07:58Z</time>
      </trkpt>
      <trkpt lat="45.03255" lon="-0.47632">
        <ele>13.6</ele>
        <time>2016-05-04T07:08:03Z</time>
      </trkpt>
      <trkpt lat="45.03256" lon="-0.47658">
        <ele>14.08</ele>
        <time>2016-05-04T07:08:18Z</time>
      </trkpt>
      <trkpt lat="45.03256" lon="-0.47665">
        <ele>14.56</ele>
        <time>2016-05-04T07:08:22Z</time>
      </trkpt>
      <trkpt lat="45.03254" lon="-0.47697">
        <ele>14.56</ele>
        <time>2016-05-04T07:08:39Z</time>
      </trkpt>
      <trkpt lat="45.03245" lon="-0.4773">
        <ele>14.56</ele>
        <time>2016-05-04T07:08:58Z</time>
      </trkpt>
      <trkpt lat="45.03232" lon="-0.47754">
        <ele>15.04</ele>
        <time>2016-05-04T07:09:14Z</time>
      </trkpt>
      <trkpt lat="45.03216" lon="-0.47775">
        <ele>15.52</ele>
        <time>2016-05-04T07:09:31Z</time>
      </trkpt>
      <trkpt lat="45.03208" lon="-0.47782">
        <ele>15.52</ele>
        <time>2016-05-04T07:09:38Z</time>
      </trkpt>
      <trkpt lat="45.03202" lon="-0.47785">
        <ele>15.52</ele>
        <time>2016-05-04T07:09:43Z</time>
      </trkpt>
      <trkpt lat="45.03182" lon="-0.47791">
        <ele>16.48</ele>
        <time>2016-05-04T07:10:00Z</time>
      </trkpt>
      <trkpt lat="45.0316" lon="-0.47795">
        <ele>16.96</ele>
        <time>2016-05-04T07:10:19Z</time>
      </trkpt>
      <trkpt lat="45.03146" lon="-0.478">
        <ele>17.44</ele>
        <time>2016-05-04T07:10:31Z</time>
      </trkpt>
      <trkpt lat="45.03129" lon="-0.47812">
        <ele>17.44</ele>
        <time>2016-05-04T07:10:46Z</time>
      </trkpt>
      <trkpt lat="45.03114" lon="-0.47826">
        <ele>17.92</ele>
        <time>2016-05-04T07:11:00Z</time>
      </trkpt>
      <trkpt lat="45.03093" lon="-0.47845">
        <ele>16.48</ele>
        <time>2016-05-04T07:11:18Z</time>
      </trkpt>
      <trkpt lat="45.03073" lon="-0.47861">
        <ele>16.48</ele>
        <time>2016-05-04T07:11:37Z</time>
      </trkpt>
      <trkpt lat="45.03055" lon="-0.47876">
        <ele>16</ele>
        <time>2016-05-04T07:11:53Z</time>
      </trkpt>
      <trkpt lat="45.03038" lon="-0.47889">
        <ele>16</ele>
        <time>2016-05-04T07:12:08Z</time>
      </trkpt>
      <trkpt lat="45.03021" lon="-0.47903">
        <ele>16.48</ele>
        <time>2016-05-04T07:12:23Z</time>
      </trkpt>
      <trkpt lat="45.03002" lon="-0.47916">
        <ele>16.48</ele>
        <time>2016-05-04T07:12:38Z</time>
      </trkpt>
      <trkpt lat="45.02985" lon="-0.47929">
        <ele>16.48</ele>
        <time>2016-05-04T07:12:53Z</time>
      </trkpt>
      <trkpt lat="45.02977" lon="-0.47936">
        <ele>17.92</ele>
        <time>2016-05-04T07:13:00Z</time>
      </trkpt>
      <trkpt lat="45.02957" lon="-0.4795">
        <ele>18.4</ele>
        <time>2016-05-04T07:13:17Z</time>
      </trkpt>
      <trkpt lat="45.02939" lon="-0.47963">
        <ele>18.4</ele>
        <time>2016-05-04T07:13:33Z</time>
      </trkpt>
      <trkpt lat="45.02925" lon="-0.47982">
        <ele>18.4</ele>
        <time>2016-05-04T07:13:49Z</time>
      </trkpt>
      <trkpt lat="45.0292" lon="-0.48006">
        <ele>18.4</ele>
        <time>2016-05-04T07:14:04Z</time>
      </trkpt>
      <trkpt lat="45.02917" lon="-0.48027">
        <ele>18.88</ele>
        <time>2016-05-04T07:14:19Z</time>
      </trkpt>
      <trkpt lat="45.02917" lon="-0.48043">
        <ele>18.88</ele>
        <time>2016-05-04T07:14:30Z</time>
      </trkpt>
      <trkpt lat="45.02916" lon="-0.48072">
        <ele>19.36</ele>
        <time>2016-05-04T07:14:48Z</time>
      </trkpt>
      <trkpt lat="45.02914" lon="-0.48097">
        <ele>19.36</ele>
        <time>2016-05-04T07:15:04Z</time>
      </trkpt>
      <trkpt lat="45.02912" lon="-0.48115">
        <ele>19.84</ele>
        <time>2016-05-04T07:15:17Z</time>
      </trkpt>
      <trkpt lat="45.02911" lon="-0.48118">
        <ele>19.84</ele>
        <time>2016-05-04T07:15:19Z</time>
      </trkpt>
      <trkpt lat="45.02902" lon="-0.48153">
        <ele>18.88</ele>
        <time>2016-05-04T07:15:38Z</time>
      </trkpt>
      <trkpt lat="45.0289" lon="-0.48187">
        <ele>17.92</ele>
        <time>2016-05-04T07:15:57Z</time>
      </trkpt>
      <trkpt lat="45.02877" lon="-0.48214">
        <ele>16</ele>
        <time>2016-05-04T07:16:14Z</time>
      </trkpt>
      <trkpt lat="45.02859" lon="-0.48236">
        <ele>16</ele>
        <time>2016-05-04T07:16:31Z</time>
      </trkpt>
      <trkpt lat="45.02841" lon="-0.48256">
        <ele>15.04</ele>
        <time>2016-05-04T07:16:48Z</time>
      </trkpt>
      <trkpt lat="45.02824" lon="-0.48274">
        <ele>15.04</ele>
        <time>2016-05-04T07:17:04Z</time>
      </trkpt>
      <trkpt lat="45.02806" lon="-0.48292">
        <ele>14.56</ele>
        <time>2016-05-04T07:17:21Z</time>
      </trkpt>
      <trkpt lat="45.02788" lon="-0.48313">
        <ele>14.56</ele>
        <time>2016-05-04T07:17:39Z</time>
      </trkpt>
      <trkpt lat="45.0277" lon="-0.48338">
        <ele>14.08</ele>
        <time>2016-05-04T07:17:58Z</time>
      </trkpt>
      <trkpt lat="45.02772" lon="-0.4836">
        <ele>14.08</ele>
        <time>2016-05-04T07:18:13Z</time>
      </trkpt>
      <trkpt lat="45.02785" lon="-0.48381">
        <ele>14.56</ele>
        <time>2016-05-04T07:18:29Z</time>
      </trkpt>
      <trkpt lat="45.02787" lon="-0.48384">
        <ele>14.56</ele>
        <time>2016-05-04T07:18:33Z</time>
      </trkpt>
      <trkpt lat="45.02784" lon="-0.48394">
        <ele>14.56</ele>
        <time>2016-05-04T07:18:39Z</time>
      </trkpt>
      <trkpt lat="45.02771" lon="-0.48414">
        <ele>13.12</ele>
        <time>2016-05-04T07:18:56Z</time>
      </trkpt>
      <trkpt lat="45.02753" lon="-0.48432">
        <ele>13.12</ele>
        <time>2016-05-04T07:19:13Z</time>
      </trkpt>
      <trkpt lat="45.0273" lon="-0.48446">
        <ele>12.63</ele>
        <time>2016-05-04T07:19:33Z</time>
      </trkpt>
      <trkpt lat="45.02709" lon="-0.48457">
        <ele>12.63</ele>
        <time>2016-05-04T07:19:50Z</time>
      </trkpt>
      <trkpt lat="45.0269" lon="-0.48469">
        <ele>12.15</ele>
        <time>2016-05-04T07:20:06Z</time>
      </trkpt>
      <trkpt lat="45.0268" lon="-0.48477">
        <ele>11.67</ele>
        <time>2016-05-04T07:20:25Z</time>
      </trkpt>
      <trkpt lat="45.02677" lon="-0.48479">
        <ele>11.67</ele>
        <time>2016-05-04T07:20:29Z</time>
      </trkpt>
      <trkpt lat="45.02662" lon="-0.48485">
        <ele>11.19</ele>
        <time>2016-05-04T07:20:46Z</time>
      </trkpt>
      <trkpt lat="45.02642" lon="-0.48493">
        <ele>10.71</ele>
        <time>2016-05-04T07:21:04Z</time>
      </trkpt>
      <trkpt lat="45.02623" lon="-0.485">
        <ele>10.71</ele>
        <time>2016-05-04T07:21:21Z</time>
      </trkpt>
      <trkpt lat="45.02605" lon="-0.48504">
        <ele>10.71</ele>
        <time>2016-05-04T07:21:38Z</time>
      </trkpt>
      <trkpt lat="45.02585" lon="-0.48506">
        <ele>10.71</ele>
        <time>2016-05-04T07:21:55Z</time>
      </trkpt>
      <trkpt lat="45.02564" lon="-0.48508">
        <ele>10.71</ele>
        <time>2016-05-04T07:22:12Z</time>
      </trkpt>
      <trkpt lat="45.02553" lon="-0.4851">
        <ele>11.19</ele>
        <time>2016-05-04T07:22:20Z</time>
      </trkpt>
      <trkpt lat="45.02536" lon="-0.48528">
        <ele>12.63</ele>
        <time>2016-05-04T07:22:38Z</time>
      </trkpt>
      <trkpt lat="45.02532" lon="-0.48551">
        <ele>14.08</ele>
        <time>2016-05-04T07:22:54Z</time>
      </trkpt>
      <trkpt lat="45.02529" lon="-0.48568">
        <ele>14.56</ele>
        <time>2016-05-04T07:23:08Z</time>
      </trkpt>
      <trkpt lat="45.02526" lon="-0.48573">
        <ele>14.56</ele>
        <time>2016-05-04T07:23:19Z</time>
      </trkpt>
      <trkpt lat="45.02526" lon="-0.48595">
        <ele>13.6</ele>
        <time>2016-05-04T07:23:34Z</time>
      </trkpt>
      <trkpt lat="45.02529" lon="-0.4862">
        <ele>11.67</ele>
        <time>2016-05-04T07:23:50Z</time>
      </trkpt>
      <trkpt lat="45.02529" lon="-0.48644">
        <ele>9.75</ele>
        <time>2016-05-04T07:24:05Z</time>
      </trkpt>
      <trkpt lat="45.02524" lon="-0.48666">
        <ele>7.83</ele>
        <time>2016-05-04T07:24:18Z</time>
      </trkpt>
      <trkpt lat="45.02513" lon="-0.48688">
        <ele>5.42</ele>
        <time>2016-05-04T07:24:35Z</time>
      </trkpt>
      <trkpt lat="45.02509" lon="-0.48696">
        <ele>4.94</ele>
        <time>2016-05-04T07:24:48Z</time>
      </trkpt>
      <trkpt lat="45.02504" lon="-0.48701">
        <ele>4.46</ele>
        <time>2016-05-04T07:25:04Z</time>
      </trkpt>
      <trkpt lat="45.02503" lon="-0.48708">
        <ele>3.5</ele>
        <time>2016-05-04T07:25:18Z</time>
      </trkpt>
      <trkpt lat="45.025" lon="-0.48715">
        <ele>3.02</ele>
        <time>2016-05-04T07:25:24Z</time>
      </trkpt>
      <trkpt lat="45.02504" lon="-0.48729">
        <ele>2.54</ele>
        <time>2016-05-04T07:25:37Z</time>
      </trkpt>
      <trkpt lat="45.02513" lon="-0.48749">
        <ele>2.06</ele>
        <time>2016-05-04T07:25:53Z</time>
      </trkpt>
      <trkpt lat="45.02519" lon="-0.48758">
        <ele>2.06</ele>
        <time>2016-05-04T07:26:06Z</time>
      </trkpt>
      <trkpt lat="45.02519" lon="-0.48759">
        <ele>2.54</ele>
        <time>2016-05-04T07:26:18Z</time>
      </trkpt>
      <trkpt lat="45.02518" lon="-0.48761">
        <ele>2.54</ele>
        <time>2016-05-04T07:26:32Z</time>
      </trkpt>
      <trkpt lat="45.02514" lon="-0.48752">
        <ele>3.02</ele>
        <time>2016-05-04T07:26:46Z</time>
      </trkpt>
      <trkpt lat="45.02502" lon="-0.48728">
        <ele>3.02</ele>
        <time>2016-05-04T07:27:05Z</time>
      </trkpt>
      <trkpt lat="45.02498" lon="-0.48722">
        <ele>3.02</ele>
        <time>2016-05-04T07:27:11Z</time>
      </trkpt>
      <trkpt lat="45.02489" lon="-0.48721">
        <ele>2.06</ele>
        <time>2016-05-04T07:27:19Z</time>
      </trkpt>
      <trkpt lat="45.0247" lon="-0.48727">
        <ele>0.62</ele>
        <time>2016-05-04T07:27:35Z</time>
      </trkpt>
      <trkpt lat="45.02469" lon="-0.4873">
        <ele>0.14</ele>
        <time>2016-05-04T07:27:38Z</time>
      </trkpt>
      <trkpt lat="45.02478" lon="-0.48764">
        <ele>0.62</ele>
        <time>2016-05-04T07:27:59Z</time>
      </trkpt>
      <trkpt lat="45.02492" lon="-0.48792">
        <ele>0.62</ele>
        <time>2016-05-04T07:28:18Z</time>
      </trkpt>
      <trkpt lat="45.02504" lon="-0.48815">
        <ele>0.62</ele>
        <time>2016-05-04T07:28:34Z</time>
      </trkpt>
      <trkpt lat="45.0252" lon="-0.48841">
        <ele>0.62</ele>
        <time>2016-05-04T07:28:52Z</time>
      </trkpt>
      <trkpt lat="45.02534" lon="-0.48864">
        <ele>0.62</ele>
        <time>2016-05-04T07:29:09Z</time>
      </trkpt>
      <trkpt lat="45.02549" lon="-0.48885">
        <ele>1.1</ele>
        <time>2016-05-04T07:29:26Z</time>
      </trkpt>
      <trkpt lat="45.02566" lon="-0.48906">
        <ele>1.1</ele>
        <time>2016-05-04T07:29:44Z</time>
      </trkpt>
      <trkpt lat="45.02575" lon="-0.48919">
        <ele>2.06</ele>
        <time>2016-05-04T07:29:55Z</time>
      </trkpt>
      <trkpt lat="45.02595" lon="-0.4894">
        <ele>2.54</ele>
        <time>2016-05-04T07:30:15Z</time>
      </trkpt>
      <trkpt lat="45.02613" lon="-0.48956">
        <ele>2.54</ele>
        <time>2016-05-04T07:30:34Z</time>
      </trkpt>
      <trkpt lat="45.02636" lon="-0.48974">
        <ele>2.54</ele>
        <time>2016-05-04T07:30:54Z</time>
      </trkpt>
      <trkpt lat="45.02656" lon="-0.48992">
        <ele>2.54</ele>
        <time>2016-05-04T07:31:12Z</time>
      </trkpt>
      <trkpt lat="45.02678" lon="-0.49012">
        <ele>3.02</ele>
        <time>2016-05-04T07:31:32Z</time>
      </trkpt>
      <trkpt lat="45.02689" lon="-0.49021">
        <ele>3.02</ele>
        <time>2016-05-04T07:31:46Z</time>
      </trkpt>
      <trkpt lat="45.027" lon="-0.49033">
        <ele>3.02</ele>
        <time>2016-05-04T07:32:00Z</time>
      </trkpt>
      <trkpt lat="45.02714" lon="-0.49046">
        <ele>3.02</ele>
        <time>2016-05-04T07:32:16Z</time>
      </trkpt>
      <trkpt lat="45.02718" lon="-0.4905">
        <ele>3.02</ele>
        <time>2016-05-04T07:32:32Z</time>
      </trkpt>
      <trkpt lat="45.02718" lon="-0.4905">
        <ele>3.02</ele>
        <time>2016-05-04T07:32:51Z</time>
      </trkpt>
      <trkpt lat="45.02718" lon="-0.49052">
        <ele>3.02</ele>
        <time>2016-05-04T07:33:08Z</time>
      </trkpt>
      <trkpt lat="45.02717" lon="-0.49052">
        <ele>3.02</ele>
        <time>2016-05-04T07:33:37Z</time>
      </trkpt>
      <trkpt lat="45.02718" lon="-0.49051">
        <ele>3.5</ele>
        <time>2016-05-04T07:34:02Z</time>
      </trkpt>
      <trkpt lat="45.02719" lon="-0.49051">
        <ele>3.5</ele>
        <time>2016-05-04T07:34:12Z</time>
      </trkpt>
      <trkpt lat="45.02723" lon="-0.49075">
        <ele>3.5</ele>
        <time>2016-05-04T07:34:29Z</time>
      </trkpt>
      <trkpt lat="45.02725" lon="-0.49081">
        <ele>2.06</ele>
        <time>2016-05-04T07:34:33Z</time>
      </trkpt>
      <trkpt lat="45.02742" lon="-0.49114">
        <ele>1.58</ele>
        <time>2016-05-04T07:34:55Z</time>
      </trkpt>
      <trkpt lat="45.02756" lon="-0.49145">
        <ele>1.58</ele>
        <time>2016-05-04T07:35:15Z</time>
      </trkpt>
      <trkpt lat="45.02765" lon="-0.49176">
        <ele>1.1</ele>
        <time>2016-05-04T07:35:34Z</time>
      </trkpt>
      <trkpt lat="45.02772" lon="-0.49214">
        <ele>0.14</ele>
        <time>2016-05-04T07:35:55Z</time>
      </trkpt>
      <trkpt lat="45.02778" lon="-0.49241">
        <ele>-0.34</ele>
        <time>2016-05-04T07:36:12Z</time>
      </trkpt>
      <trkpt lat="45.02781" lon="-0.49252">
        <ele>0.14</ele>
        <time>2016-05-04T07:36:22Z</time>
      </trkpt>
      <trkpt lat="45.02783" lon="-0.49261">
        <ele>0.14</ele>
        <time>2016-05-04T07:36:34Z</time>
      </trkpt>
      <trkpt lat="45.02793" lon="-0.49298">
        <ele>-0.82</ele>
        <time>2016-05-04T07:36:55Z</time>
      </trkpt>
      <trkpt lat="45.02801" lon="-0.4933">
        <ele>-1.3</ele>
        <time>2016-05-04T07:37:15Z</time>
      </trkpt>
      <trkpt lat="45.02802" lon="-0.49334">
        <ele>-1.3</ele>
        <time>2016-05-04T07:37:17Z</time>
      </trkpt>
      <trkpt lat="45.02803" lon="-0.49342">
        <ele>-1.3</ele>
        <time>2016-05-04T07:37:22Z</time>
      </trkpt>
      <trkpt lat="45.02804" lon="-0.49363">
        <ele>-0.82</ele>
        <time>2016-05-04T07:37:40Z</time>
      </trkpt>
      <trkpt lat="45.02805" lon="-0.49366">
        <ele>-0.82</ele>
        <time>2016-05-04T07:37:49Z</time>
      </trkpt>
      <trkpt lat="45.02811" lon="-0.49368">
        <ele>-0.82</ele>
        <time>2016-05-04T07:37:55Z</time>
      </trkpt>
      <trkpt lat="45.02825" lon="-0.49371">
        <ele>-0.82</ele>
        <time>2016-05-04T07:38:12Z</time>
      </trkpt>
      <trkpt lat="45.02831" lon="-0.49385">
        <ele>-0.82</ele>
        <time>2016-05-04T07:38:27Z</time>
      </trkpt>
      <trkpt lat="45.02832" lon="-0.49389">
        <ele>-1.3</ele>
        <time>2016-05-04T07:38:43Z</time>
      </trkpt>
      <trkpt lat="45.02829" lon="-0.49391">
        <ele>-1.3</ele>
        <time>2016-05-04T07:38:50Z</time>
      </trkpt>
      <trkpt lat="45.02833" lon="-0.494">
        <ele>-1.3</ele>
        <time>2016-05-04T07:39:03Z</time>
      </trkpt>
      <trkpt lat="45.02837" lon="-0.49397">
        <ele>-1.3</ele>
        <time>2016-05-04T07:39:16Z</time>
      </trkpt>
      <trkpt lat="45.02836" lon="-0.49396">
        <ele>-1.3</ele>
        <time>2016-05-04T07:39:32Z</time>
      </trkpt>
      <trkpt lat="45.02838" lon="-0.49396">
        <ele>-1.3</ele>
        <time>2016-05-04T07:39:59Z</time>
      </trkpt>
      <trkpt lat="45.02837" lon="-0.49393">
        <ele>-1.3</ele>
        <time>2016-05-04T07:40:25Z</time>
      </trkpt>
      <trkpt lat="45.02838" lon="-0.49393">
        <ele>-0.82</ele>
        <time>2016-05-04T07:40:48Z</time>
      </trkpt>
      <trkpt lat="45.02834" lon="-0.49379">
        <ele>-0.82</ele>
        <time>2016-05-04T07:41:01Z</time>
      </trkpt>
      <trkpt lat="45.02831" lon="-0.49366">
        <ele>0.62</ele>
        <time>2016-05-04T07:41:10Z</time>
      </trkpt>
      <trkpt lat="45.02836" lon="-0.49357">
        <ele>1.1</ele>
        <time>2016-05-04T07:41:17Z</time>
      </trkpt>
      <trkpt lat="45.02856" lon="-0.49346">
        <ele>2.06</ele>
        <time>2016-05-04T07:41:34Z</time>
      </trkpt>
      <trkpt lat="45.02874" lon="-0.49335">
        <ele>3.02</ele>
        <time>2016-05-04T07:41:51Z</time>
      </trkpt>
      <trkpt lat="45.02894" lon="-0.49327">
        <ele>4.46</ele>
        <time>2016-05-04T07:42:07Z</time>
      </trkpt>
      <trkpt lat="45.02915" lon="-0.49317">
        <ele>6.39</ele>
        <time>2016-05-04T07:42:25Z</time>
      </trkpt>
      <trkpt lat="45.02935" lon="-0.49307">
        <ele>7.83</ele>
        <time>2016-05-04T07:42:42Z</time>
      </trkpt>
      <trkpt lat="45.02955" lon="-0.49299">
        <ele>10.23</ele>
        <time>2016-05-04T07:42:59Z</time>
      </trkpt>
      <trkpt lat="45.02972" lon="-0.49292">
        <ele>12.63</ele>
        <time>2016-05-04T07:43:14Z</time>
      </trkpt>
      <trkpt lat="45.02991" lon="-0.49283">
        <ele>15.04</ele>
        <time>2016-05-04T07:43:31Z</time>
      </trkpt>
      <trkpt lat="45.03009" lon="-0.49274">
        <ele>17.44</ele>
        <time>2016-05-04T07:43:47Z</time>
      </trkpt>
      <trkpt lat="45.03013" lon="-0.4927">
        <ele>17.44</ele>
        <time>2016-05-04T07:44:01Z</time>
      </trkpt>
      <trkpt lat="45.03014" lon="-0.4927">
        <ele>17.44</ele>
        <time>2016-05-04T07:44:06Z</time>
      </trkpt>
      <trkpt lat="45.03026" lon="-0.49264">
        <ele>18.88</ele>
        <time>2016-05-04T07:44:23Z</time>
      </trkpt>
      <trkpt lat="45.03028" lon="-0.49262">
        <ele>19.36</ele>
        <time>2016-05-04T07:44:42Z</time>
      </trkpt>
      <trkpt lat="45.03028" lon="-0.49261">
        <ele>19.36</ele>
        <time>2016-05-04T07:44:56Z</time>
      </trkpt>
      <trkpt lat="45.0303" lon="-0.49261">
        <ele>19.36</ele>
        <time>2016-05-04T07:45:20Z</time>
      </trkpt>
      <trkpt lat="45.03032" lon="-0.49262">
        <ele>19.36</ele>
        <time>2016-05-04T07:45:46Z</time>
      </trkpt>
      <trkpt lat="45.0304" lon="-0.49258">
        <ele>19.84</ele>
        <time>2016-05-04T07:46:02Z</time>
      </trkpt>
      <trkpt lat="45.03056" lon="-0.49252">
        <ele>21.29</ele>
        <time>2016-05-04T07:46:16Z</time>
      </trkpt>
      <trkpt lat="45.03073" lon="-0.49242">
        <ele>22.73</ele>
        <time>2016-05-04T07:46:33Z</time>
      </trkpt>
      <trkpt lat="45.03092" lon="-0.49232">
        <ele>23.21</ele>
        <time>2016-05-04T07:46:49Z</time>
      </trkpt>
      <trkpt lat="45.03111" lon="-0.49221">
        <ele>23.21</ele>
        <time>2016-05-04T07:47:05Z</time>
      </trkpt>
      <trkpt lat="45.03127" lon="-0.49212">
        <ele>24.17</ele>
        <time>2016-05-04T07:47:20Z</time>
      </trkpt>
      <trkpt lat="45.03147" lon="-0.49203">
        <ele>24.17</ele>
        <time>2016-05-04T07:47:37Z</time>
      </trkpt>
      <trkpt lat="45.03161" lon="-0.49189">
        <ele>25.13</ele>
        <time>2016-05-04T07:47:53Z</time>
      </trkpt>
      <trkpt lat="45.0316" lon="-0.4918">
        <ele>25.61</ele>
        <time>2016-05-04T07:47:58Z</time>
      </trkpt>
      <trkpt lat="45.03154" lon="-0.49152">
        <ele>26.09</ele>
        <time>2016-05-04T07:48:16Z</time>
      </trkpt>
      <trkpt lat="45.03147" lon="-0.49127">
        <ele>26.57</ele>
        <time>2016-05-04T07:48:31Z</time>
      </trkpt>
      <trkpt lat="45.03139" lon="-0.49097">
        <ele>26.57</ele>
        <time>2016-05-04T07:48:49Z</time>
      </trkpt>
      <trkpt lat="45.03135" lon="-0.49077">
        <ele>26.57</ele>
        <time>2016-05-04T07:49:04Z</time>
      </trkpt>
      <trkpt lat="45.03132" lon="-0.49062">
        <ele>26.57</ele>
        <time>2016-05-04T07:49:16Z</time>
      </trkpt>
      <trkpt lat="45.03125" lon="-0.49036">
        <ele>27.05</ele>
        <time>2016-05-04T07:49:32Z</time>
      </trkpt>
      <trkpt lat="45.03121" lon="-0.4902">
        <ele>27.05</ele>
        <time>2016-05-04T07:49:42Z</time>
      </trkpt>
      <trkpt lat="45.03117" lon="-0.49011">
        <ele>27.05</ele>
        <time>2016-05-04T07:49:54Z</time>
      </trkpt>
      <trkpt lat="45.03115" lon="-0.4901">
        <ele>27.53</ele>
        <time>2016-05-04T07:50:11Z</time>
      </trkpt>
      <trkpt lat="45.03116" lon="-0.4901">
        <ele>27.53</ele>
        <time>2016-05-04T07:50:28Z</time>
      </trkpt>
      <trkpt lat="45.03117" lon="-0.49011">
        <ele>27.53</ele>
        <time>2016-05-04T07:50:36Z</time>
      </trkpt>
      <trkpt lat="45.03116" lon="-0.49012">
        <ele>27.53</ele>
        <time>2016-05-04T07:50:48Z</time>
      </trkpt>
      <trkpt lat="45.03119" lon="-0.49011">
        <ele>27.53</ele>
        <time>2016-05-04T07:51:00Z</time>
      </trkpt>
      <trkpt lat="45.03132" lon="-0.49003">
        <ele>27.53</ele>
        <time>2016-05-04T07:51:11Z</time>
      </trkpt>
      <trkpt lat="45.03136" lon="-0.49002">
        <ele>27.53</ele>
        <time>2016-05-04T07:51:16Z</time>
      </trkpt>
      <trkpt lat="45.03151" lon="-0.48992">
        <ele>28.02</ele>
        <time>2016-05-04T07:51:29Z</time>
      </trkpt>
      <trkpt lat="45.03158" lon="-0.48982">
        <ele>28.02</ele>
        <time>2016-05-04T07:51:45Z</time>
      </trkpt>
      <trkpt lat="45.0316" lon="-0.48982">
        <ele>28.02</ele>
        <time>2016-05-04T07:51:51Z</time>
      </trkpt>
      <trkpt lat="45.03167" lon="-0.4898">
        <ele>28.02</ele>
        <time>2016-05-04T07:51:57Z</time>
      </trkpt>
      <trkpt lat="45.03184" lon="-0.48974">
        <ele>28.02</ele>
        <time>2016-05-04T07:52:14Z</time>
      </trkpt>
      <trkpt lat="45.03191" lon="-0.48971">
        <ele>28.5</ele>
        <time>2016-05-04T07:52:32Z</time>
      </trkpt>
      <trkpt lat="45.03192" lon="-0.48971">
        <ele>28.5</ele>
        <time>2016-05-04T07:52:45Z</time>
      </trkpt>
      <trkpt lat="45.03193" lon="-0.48973">
        <ele>28.5</ele>
        <time>2016-05-04T07:53:25Z</time>
      </trkpt>
      <trkpt lat="45.03198" lon="-0.48976">
        <ele>28.5</ele>
        <time>2016-05-04T07:53:42Z</time>
      </trkpt>
      <trkpt lat="45.03208" lon="-0.49">
        <ele>28.98</ele>
        <time>2016-05-04T07:54:00Z</time>
      </trkpt>
      <trkpt lat="45.03216" lon="-0.49029">
        <ele>28.98</ele>
        <time>2016-05-04T07:54:17Z</time>
      </trkpt>
      <trkpt lat="45.03221" lon="-0.49044">
        <ele>28.98</ele>
        <time>2016-05-04T07:54:28Z</time>
      </trkpt>
      <trkpt lat="45.03229" lon="-0.4907">
        <ele>29.46</ele>
        <time>2016-05-04T07:54:45Z</time>
      </trkpt>
      <trkpt lat="45.03237" lon="-0.49094">
        <ele>29.46</ele>
        <time>2016-05-04T07:55:01Z</time>
      </trkpt>
      <trkpt lat="45.0324" lon="-0.49104">
        <ele>29.46</ele>
        <time>2016-05-04T07:55:07Z</time>
      </trkpt>
      <trkpt lat="45.03243" lon="-0.49113">
        <ele>29.94</ele>
        <time>2016-05-04T07:55:22Z</time>
      </trkpt>
      <trkpt lat="45.03245" lon="-0.49123">
        <ele>29.94</ele>
        <time>2016-05-04T07:55:38Z</time>
      </trkpt>
      <trkpt lat="45.03249" lon="-0.49144">
        <ele>29.94</ele>
        <time>2016-05-04T07:55:54Z</time>
      </trkpt>
      <trkpt lat="45.0325" lon="-0.49156">
        <ele>29.94</ele>
        <time>2016-05-04T07:56:02Z</time>
      </trkpt>
      <trkpt lat="45.03237" lon="-0.4918">
        <ele>29.94</ele>
        <time>2016-05-04T07:56:20Z</time>
      </trkpt>
      <trkpt lat="45.03228" lon="-0.49187">
        <ele>29.94</ele>
        <time>2016-05-04T07:56:29Z</time>
      </trkpt>
      <trkpt lat="45.03221" lon="-0.49179">
        <ele>29.94</ele>
        <time>2016-05-04T07:56:39Z</time>
      </trkpt>
      <trkpt lat="45.03216" lon="-0.49179">
        <ele>29.94</ele>
        <time>2016-05-04T07:56:43Z</time>
      </trkpt>
      <trkpt lat="45.03195" lon="-0.49186">
        <ele>28.5</ele>
        <time>2016-05-04T07:57:00Z</time>
      </trkpt>
      <trkpt lat="45.03174" lon="-0.49196">
        <ele>28.5</ele>
        <time>2016-05-04T07:57:18Z</time>
      </trkpt>
      <trkpt lat="45.03157" lon="-0.49209">
        <ele>27.05</ele>
        <time>2016-05-04T07:57:35Z</time>
      </trkpt>
      <trkpt lat="45.0314" lon="-0.49217">
        <ele>26.57</ele>
        <time>2016-05-04T07:57:53Z</time>
      </trkpt>
      <trkpt lat="45.03121" lon="-0.49228">
        <ele>26.09</ele>
        <time>2016-05-04T07:58:10Z</time>
      </trkpt>
      <trkpt lat="45.03114" lon="-0.49234">
        <ele>26.57</ele>
        <time>2016-05-04T07:58:25Z</time>
      </trkpt>
      <trkpt lat="45.03104" lon="-0.49238">
        <ele>26.09</ele>
        <time>2016-05-04T07:58:39Z</time>
      </trkpt>
      <trkpt lat="45.03098" lon="-0.49245">
        <ele>25.61</ele>
        <time>2016-05-04T07:58:51Z</time>
      </trkpt>
      <trkpt lat="45.03098" lon="-0.49258">
        <ele>25.61</ele>
        <time>2016-05-04T07:59:05Z</time>
      </trkpt>
      <trkpt lat="45.031" lon="-0.4926">
        <ele>25.61</ele>
        <time>2016-05-04T07:59:10Z</time>
      </trkpt>
      <trkpt lat="45.03099" lon="-0.49263">
        <ele>25.61</ele>
        <time>2016-05-04T07:59:21Z</time>
      </trkpt>
      <trkpt lat="45.03096" lon="-0.49253">
        <ele>25.61</ele>
        <time>2016-05-04T07:59:35Z</time>
      </trkpt>
      <trkpt lat="45.03097" lon="-0.49248">
        <ele>25.61</ele>
        <time>2016-05-04T07:59:39Z</time>
      </trkpt>
      <trkpt lat="45.03112" lon="-0.49236">
        <ele>25.61</ele>
        <time>2016-05-04T07:59:58Z</time>
      </trkpt>
      <trkpt lat="45.03115" lon="-0.49234">
        <ele>27.05</ele>
        <time>2016-05-04T08:00:05Z</time>
      </trkpt>
      <trkpt lat="45.0312" lon="-0.49231">
        <ele>27.05</ele>
        <time>2016-05-04T08:00:16Z</time>
      </trkpt>
      <trkpt lat="45.03135" lon="-0.49222">
        <ele>27.53</ele>
        <time>2016-05-04T08:00:34Z</time>
      </trkpt>
      <trkpt lat="45.03143" lon="-0.49222">
        <ele>27.53</ele>
        <time>2016-05-04T08:00:47Z</time>
      </trkpt>
      <trkpt lat="45.03145" lon="-0.49229">
        <ele>27.53</ele>
        <time>2016-05-04T08:00:53Z</time>
      </trkpt>
      <trkpt lat="45.03144" lon="-0.49245">
        <ele>27.53</ele>
        <time>2016-05-04T08:01:04Z</time>
      </trkpt>
      <trkpt lat="45.03142" lon="-0.49256">
        <ele>27.53</ele>
        <time>2016-05-04T08:01:13Z</time>
      </trkpt>
      <trkpt lat="45.0313" lon="-0.49272">
        <ele>26.57</ele>
        <time>2016-05-04T08:01:29Z</time>
      </trkpt>
      <trkpt lat="45.0312" lon="-0.49277">
        <ele>25.61</ele>
        <time>2016-05-04T08:01:44Z</time>
      </trkpt>
      <trkpt lat="45.03114" lon="-0.49287">
        <ele>25.61</ele>
        <time>2016-05-04T08:01:56Z</time>
      </trkpt>
      <trkpt lat="45.03114" lon="-0.49294">
        <ele>25.13</ele>
        <time>2016-05-04T08:02:09Z</time>
      </trkpt>
      <trkpt lat="45.03117" lon="-0.49301">
        <ele>25.13</ele>
        <time>2016-05-04T08:02:18Z</time>
      </trkpt>
      <trkpt lat="45.0312" lon="-0.49312">
        <ele>25.13</ele>
        <time>2016-05-04T08:02:28Z</time>
      </trkpt>
      <trkpt lat="45.0312" lon="-0.49331">
        <ele>25.13</ele>
        <time>2016-05-04T08:02:39Z</time>
      </trkpt>
      <trkpt lat="45.03116" lon="-0.49342">
        <ele>25.13</ele>
        <time>2016-05-04T08:02:46Z</time>
      </trkpt>
      <trkpt lat="45.03107" lon="-0.49345">
        <ele>25.13</ele>
        <time>2016-05-04T08:02:58Z</time>
      </trkpt>
      <trkpt lat="45.03106" lon="-0.49346">
        <ele>25.13</ele>
        <time>2016-05-04T08:03:09Z</time>
      </trkpt>
      <trkpt lat="45.03107" lon="-0.49356">
        <ele>23.69</ele>
        <time>2016-05-04T08:03:18Z</time>
      </trkpt>
      <trkpt lat="45.03109" lon="-0.49377">
        <ele>22.73</ele>
        <time>2016-05-04T08:03:34Z</time>
      </trkpt>
      <trkpt lat="45.03112" lon="-0.49397">
        <ele>21.77</ele>
        <time>2016-05-04T08:03:49Z</time>
      </trkpt>
      <trkpt lat="45.0311" lon="-0.4942">
        <ele>20.81</ele>
        <time>2016-05-04T08:04:07Z</time>
      </trkpt>
      <trkpt lat="45.03109" lon="-0.49425">
        <ele>20.32</ele>
        <time>2016-05-04T08:04:26Z</time>
      </trkpt>
      <trkpt lat="45.03111" lon="-0.49425">
        <ele>20.32</ele>
        <time>2016-05-04T08:04:39Z</time>
      </trkpt>
      <trkpt lat="45.03114" lon="-0.49426">
        <ele>21.29</ele>
        <time>2016-05-04T08:04:43Z</time>
      </trkpt>
      <trkpt lat="45.03121" lon="-0.49452">
        <ele>22.73</ele>
        <time>2016-05-04T08:05:01Z</time>
      </trkpt>
      <trkpt lat="45.03126" lon="-0.49475">
        <ele>23.21</ele>
        <time>2016-05-04T08:05:17Z</time>
      </trkpt>
      <trkpt lat="45.03126" lon="-0.49477">
        <ele>23.21</ele>
        <time>2016-05-04T08:05:18Z</time>
      </trkpt>
      <trkpt lat="45.03132" lon="-0.49491">
        <ele>23.69</ele>
        <time>2016-05-04T08:05:31Z</time>
      </trkpt>
      <trkpt lat="45.0315" lon="-0.49496">
        <ele>24.65</ele>
        <time>2016-05-04T08:05:47Z</time>
      </trkpt>
      <trkpt lat="45.03166" lon="-0.49501">
        <ele>24.65</ele>
        <time>2016-05-04T08:06:02Z</time>
      </trkpt>
      <trkpt lat="45.03172" lon="-0.49513">
        <ele>24.65</ele>
        <time>2016-05-04T08:06:16Z</time>
      </trkpt>
      <trkpt lat="45.03177" lon="-0.49533">
        <ele>24.65</ele>
        <time>2016-05-04T08:06:30Z</time>
      </trkpt>
      <trkpt lat="45.03183" lon="-0.49553">
        <ele>23.21</ele>
        <time>2016-05-04T08:06:44Z</time>
      </trkpt>
      <trkpt lat="45.03184" lon="-0.49554">
        <ele>23.21</ele>
        <time>2016-05-04T08:06:45Z</time>
      </trkpt>
      <trkpt lat="45.0319" lon="-0.49579">
        <ele>23.21</ele>
        <time>2016-05-04T08:07:01Z</time>
      </trkpt>
      <trkpt lat="45.03198" lon="-0.49608">
        <ele>22.25</ele>
        <time>2016-05-04T08:07:19Z</time>
      </trkpt>
      <trkpt lat="45.03206" lon="-0.49634">
        <ele>21.29</ele>
        <time>2016-05-04T08:07:36Z</time>
      </trkpt>
      <trkpt lat="45.03211" lon="-0.49651">
        <ele>21.29</ele>
        <time>2016-05-04T08:07:46Z</time>
      </trkpt>
      <trkpt lat="45.03218" lon="-0.49678">
        <ele>20.81</ele>
        <time>2016-05-04T08:08:03Z</time>
      </trkpt>
      <trkpt lat="45.03226" lon="-0.49707">
        <ele>20.81</ele>
        <time>2016-05-04T08:08:20Z</time>
      </trkpt>
      <trkpt lat="45.03232" lon="-0.49737">
        <ele>19.84</ele>
        <time>2016-05-04T08:08:39Z</time>
      </trkpt>
      <trkpt lat="45.03239" lon="-0.49771">
        <ele>19.84</ele>
        <time>2016-05-04T08:08:58Z</time>
      </trkpt>
      <trkpt lat="45.03244" lon="-0.49796">
        <ele>19.84</ele>
        <time>2016-05-04T08:09:14Z</time>
      </trkpt>
      <trkpt lat="45.03247" lon="-0.49804">
        <ele>19.36</ele>
        <time>2016-05-04T08:09:20Z</time>
      </trkpt>
      <trkpt lat="45.03251" lon="-0.4982">
        <ele>19.36</ele>
        <time>2016-05-04T08:09:36Z</time>
      </trkpt>
      <trkpt lat="45.03258" lon="-0.49824">
        <ele>19.36</ele>
        <time>2016-05-04T08:09:57Z</time>
      </trkpt>
      <trkpt lat="45.03274" lon="-0.49818">
        <ele>19.36</ele>
        <time>2016-05-04T08:10:15Z</time>
      </trkpt>
      <trkpt lat="45.03278" lon="-0.49815">
        <ele>19.36</ele>
        <time>2016-05-04T08:10:25Z</time>
      </trkpt>
      <trkpt lat="45.03295" lon="-0.49806">
        <ele>20.32</ele>
        <time>2016-05-04T08:10:42Z</time>
      </trkpt>
      <trkpt lat="45.03312" lon="-0.49794">
        <ele>21.77</ele>
        <time>2016-05-04T08:10:58Z</time>
      </trkpt>
      <trkpt lat="45.03326" lon="-0.49783">
        <ele>23.21</ele>
        <time>2016-05-04T08:11:14Z</time>
      </trkpt>
      <trkpt lat="45.03341" lon="-0.49773">
        <ele>24.17</ele>
        <time>2016-05-04T08:11:29Z</time>
      </trkpt>
      <trkpt lat="45.03356" lon="-0.49758">
        <ele>26.57</ele>
        <time>2016-05-04T08:11:45Z</time>
      </trkpt>
      <trkpt lat="45.03375" lon="-0.49741">
        <ele>28.5</ele>
        <time>2016-05-04T08:12:04Z</time>
      </trkpt>
      <trkpt lat="45.03391" lon="-0.49727">
        <ele>29.94</ele>
        <time>2016-05-04T08:12:20Z</time>
      </trkpt>
      <trkpt lat="45.03412" lon="-0.49716">
        <ele>30.9</ele>
        <time>2016-05-04T08:12:37Z</time>
      </trkpt>
      <trkpt lat="45.03432" lon="-0.49702">
        <ele>31.86</ele>
        <time>2016-05-04T08:12:54Z</time>
      </trkpt>
      <trkpt lat="45.03446" lon="-0.49693">
        <ele>31.86</ele>
        <time>2016-05-04T08:13:10Z</time>
      </trkpt>
      <trkpt lat="45.03458" lon="-0.49687">
        <ele>31.86</ele>
        <time>2016-05-04T08:13:26Z</time>
      </trkpt>
      <trkpt lat="45.03466" lon="-0.49685">
        <ele>31.86</ele>
        <time>2016-05-04T08:13:35Z</time>
      </trkpt>
      <trkpt lat="45.03477" lon="-0.4968">
        <ele>32.34</ele>
        <time>2016-05-04T08:13:50Z</time>
      </trkpt>
      <trkpt lat="45.03479" lon="-0.49674">
        <ele>32.34</ele>
        <time>2016-05-04T08:14:07Z</time>
      </trkpt>
      <trkpt lat="45.03484" lon="-0.49671">
        <ele>32.34</ele>
        <time>2016-05-04T08:14:17Z</time>
      </trkpt>
      <trkpt lat="45.03497" lon="-0.49688">
        <ele>32.34</ele>
        <time>2016-05-04T08:14:34Z</time>
      </trkpt>
      <trkpt lat="45.03506" lon="-0.49702">
        <ele>32.34</ele>
        <time>2016-05-04T08:14:47Z</time>
      </trkpt>
      <trkpt lat="45.03506" lon="-0.49704">
        <ele>32.34</ele>
        <time>2016-05-04T08:14:48Z</time>
      </trkpt>
      <trkpt lat="45.03513" lon="-0.49721">
        <ele>31.38</ele>
        <time>2016-05-04T08:15:00Z</time>
      </trkpt>
      <trkpt lat="45.03519" lon="-0.49739">
        <ele>30.9</ele>
        <time>2016-05-04T08:15:15Z</time>
      </trkpt>
      <trkpt lat="45.03525" lon="-0.49759">
        <ele>30.9</ele>
        <time>2016-05-04T08:15:30Z</time>
      </trkpt>
      <trkpt lat="45.03529" lon="-0.49772">
        <ele>30.42</ele>
        <time>2016-05-04T08:15:42Z</time>
      </trkpt>
      <trkpt lat="45.03537" lon="-0.49789">
        <ele>29.94</ele>
        <time>2016-05-04T08:16:00Z</time>
      </trkpt>
      <trkpt lat="45.03541" lon="-0.4981">
        <ele>29.46</ele>
        <time>2016-05-04T08:16:12Z</time>
      </trkpt>
      <trkpt lat="45.03548" lon="-0.49837">
        <ele>28.98</ele>
        <time>2016-05-04T08:16:30Z</time>
      </trkpt>
      <trkpt lat="45.03552" lon="-0.49866">
        <ele>28.98</ele>
        <time>2016-05-04T08:16:47Z</time>
      </trkpt>
      <trkpt lat="45.03558" lon="-0.49883">
        <ele>28.5</ele>
        <time>2016-05-04T08:17:03Z</time>
      </trkpt>
      <trkpt lat="45.03564" lon="-0.49894">
        <ele>28.5</ele>
        <time>2016-05-04T08:17:12Z</time>
      </trkpt>
      <trkpt lat="45.03565" lon="-0.49923">
        <ele>28.02</ele>
        <time>2016-05-04T08:17:27Z</time>
      </trkpt>
      <trkpt lat="45.03568" lon="-0.49934">
        <ele>28.02</ele>
        <time>2016-05-04T08:17:34Z</time>
      </trkpt>
      <trkpt lat="45.03572" lon="-0.49947">
        <ele>28.02</ele>
        <time>2016-05-04T08:17:42Z</time>
      </trkpt>
      <trkpt lat="45.03577" lon="-0.49974">
        <ele>27.53</ele>
        <time>2016-05-04T08:17:56Z</time>
      </trkpt>
      <trkpt lat="45.03584" lon="-0.50006">
        <ele>27.53</ele>
        <time>2016-05-04T08:18:13Z</time>
      </trkpt>
      <trkpt lat="45.03584" lon="-0.50011">
        <ele>27.53</ele>
        <time>2016-05-04T08:18:16Z</time>
      </trkpt>
      <trkpt lat="45.03585" lon="-0.50014">
        <ele>27.05</ele>
        <time>2016-05-04T08:18:19Z</time>
      </trkpt>
      <trkpt lat="45.03585" lon="-0.50029">
        <ele>27.05</ele>
        <time>2016-05-04T08:18:32Z</time>
      </trkpt>
      <trkpt lat="45.03582" lon="-0.50039">
        <ele>27.05</ele>
        <time>2016-05-04T08:18:54Z</time>
      </trkpt>
      <trkpt lat="45.03583" lon="-0.5004">
        <ele>27.05</ele>
        <time>2016-05-04T08:18:58Z</time>
      </trkpt>
      <trkpt lat="45.03584" lon="-0.50041">
        <ele>27.05</ele>
        <time>2016-05-04T08:19:00Z</time>
      </trkpt>
      <trkpt lat="45.03598" lon="-0.50052">
        <ele>27.05</ele>
        <time>2016-05-04T08:19:15Z</time>
      </trkpt>
      <trkpt lat="45.03614" lon="-0.50064">
        <ele>26.57</ele>
        <time>2016-05-04T08:19:29Z</time>
      </trkpt>
      <trkpt lat="45.0363" lon="-0.50086">
        <ele>26.09</ele>
        <time>2016-05-04T08:19:47Z</time>
      </trkpt>
      <trkpt lat="45.03638" lon="-0.50099">
        <ele>26.09</ele>
        <time>2016-05-04T08:20:02Z</time>
      </trkpt>
      <trkpt lat="45.0364" lon="-0.501">
        <ele>26.09</ele>
        <time>2016-05-04T08:20:04Z</time>
      </trkpt>
      <trkpt lat="45.03645" lon="-0.50103">
        <ele>26.09</ele>
        <time>2016-05-04T08:20:09Z</time>
      </trkpt>
      <trkpt lat="45.0367" lon="-0.501">
        <ele>26.09</ele>
        <time>2016-05-04T08:20:31Z</time>
      </trkpt>
      <trkpt lat="45.03673" lon="-0.50097">
        <ele>25.61</ele>
        <time>2016-05-04T08:20:45Z</time>
      </trkpt>
      <trkpt lat="45.0369" lon="-0.50094">
        <ele>25.13</ele>
        <time>2016-05-04T08:21:00Z</time>
      </trkpt>
      <trkpt lat="45.03696" lon="-0.50093">
        <ele>25.13</ele>
        <time>2016-05-04T08:21:06Z</time>
      </trkpt>
      <trkpt lat="45.03714" lon="-0.5009">
        <ele>24.65</ele>
        <time>2016-05-04T08:21:22Z</time>
      </trkpt>
      <trkpt lat="45.03735" lon="-0.50079">
        <ele>24.65</ele>
        <time>2016-05-04T08:21:40Z</time>
      </trkpt>
      <trkpt lat="45.03761" lon="-0.50068">
        <ele>23.69</ele>
        <time>2016-05-04T08:22:00Z</time>
      </trkpt>
      <trkpt lat="45.03784" lon="-0.50058">
        <ele>23.21</ele>
        <time>2016-05-04T08:22:20Z</time>
      </trkpt>
      <trkpt lat="45.03792" lon="-0.50052">
        <ele>23.21</ele>
        <time>2016-05-04T08:22:27Z</time>
      </trkpt>
      <trkpt lat="45.03812" lon="-0.50041">
        <ele>22.73</ele>
        <time>2016-05-04T08:22:45Z</time>
      </trkpt>
      <trkpt lat="45.03832" lon="-0.50039">
        <ele>22.73</ele>
        <time>2016-05-04T08:23:02Z</time>
      </trkpt>
      <trkpt lat="45.03835" lon="-0.50039">
        <ele>22.73</ele>
        <time>2016-05-04T08:23:05Z</time>
      </trkpt>
      <trkpt lat="45.03849" lon="-0.50036">
        <ele>22.73</ele>
        <time>2016-05-04T08:23:20Z</time>
      </trkpt>
      <trkpt lat="45.03867" lon="-0.50035">
        <ele>22.73</ele>
        <time>2016-05-04T08:23:34Z</time>
      </trkpt>
      <trkpt lat="45.03885" lon="-0.5004">
        <ele>22.73</ele>
        <time>2016-05-04T08:23:47Z</time>
      </trkpt>
      <trkpt lat="45.03898" lon="-0.50055">
        <ele>24.17</ele>
        <time>2016-05-04T08:24:03Z</time>
      </trkpt>
      <trkpt lat="45.03907" lon="-0.50074">
        <ele>25.13</ele>
        <time>2016-05-04T08:24:17Z</time>
      </trkpt>
      <trkpt lat="45.03918" lon="-0.50087">
        <ele>25.13</ele>
        <time>2016-05-04T08:24:32Z</time>
      </trkpt>
      <trkpt lat="45.03932" lon="-0.50103">
        <ele>26.57</ele>
        <time>2016-05-04T08:24:47Z</time>
      </trkpt>
      <trkpt lat="45.0394" lon="-0.50113">
        <ele>27.05</ele>
        <time>2016-05-04T08:24:56Z</time>
      </trkpt>
      <trkpt lat="45.03953" lon="-0.50141">
        <ele>28.02</ele>
        <time>2016-05-04T08:25:14Z</time>
      </trkpt>
      <trkpt lat="45.03953" lon="-0.50171">
        <ele>28.98</ele>
        <time>2016-05-04T08:25:29Z</time>
      </trkpt>
      <trkpt lat="45.03952" lon="-0.50175">
        <ele>29.46</ele>
        <time>2016-05-04T08:25:31Z</time>
      </trkpt>
      <trkpt lat="45.03952" lon="-0.50183">
        <ele>29.46</ele>
        <time>2016-05-04T08:25:34Z</time>
      </trkpt>
      <trkpt lat="45.03941" lon="-0.50188">
        <ele>29.46</ele>
        <time>2016-05-04T08:25:49Z</time>
      </trkpt>
      <trkpt lat="45.03937" lon="-0.50187">
        <ele>29.46</ele>
        <time>2016-05-04T08:26:07Z</time>
      </trkpt>
      <trkpt lat="45.03937" lon="-0.5018">
        <ele>29.46</ele>
        <time>2016-05-04T08:26:21Z</time>
      </trkpt>
      <trkpt lat="45.03938" lon="-0.50174">
        <ele>29.46</ele>
        <time>2016-05-04T08:26:44Z</time>
      </trkpt>
      <trkpt lat="45.0394" lon="-0.50174">
        <ele>29.46</ele>
        <time>2016-05-04T08:27:03Z</time>
      </trkpt>
      <trkpt lat="45.03942" lon="-0.50175">
        <ele>29.46</ele>
        <time>2016-05-04T08:27:26Z</time>
      </trkpt>
      <trkpt lat="45.0394" lon="-0.50185">
        <ele>29.46</ele>
        <time>2016-05-04T08:27:50Z</time>
      </trkpt>
      <trkpt lat="45.03939" lon="-0.50183">
        <ele>29.46</ele>
        <time>2016-05-04T08:28:14Z</time>
      </trkpt>
      <trkpt lat="45.03936" lon="-0.50168">
        <ele>29.46</ele>
        <time>2016-05-04T08:28:35Z</time>
      </trkpt>
      <trkpt lat="45.03942" lon="-0.50167">
        <ele>29.94</ele>
        <time>2016-05-04T08:29:00Z</time>
      </trkpt>
      <trkpt lat="45.03947" lon="-0.50162">
        <ele>29.94</ele>
        <time>2016-05-04T08:29:21Z</time>
      </trkpt>
      <trkpt lat="45.03936" lon="-0.50184">
        <ele>29.94</ele>
        <time>2016-05-04T08:29:34Z</time>
      </trkpt>
      <trkpt lat="45.03938" lon="-0.50186">
        <ele>29.94</ele>
        <time>2016-05-04T08:29:46Z</time>
      </trkpt>
      <trkpt lat="45.03938" lon="-0.50185">
        <ele>29.94</ele>
        <time>2016-05-04T08:30:11Z</time>
      </trkpt>
      <trkpt lat="45.03939" lon="-0.50187">
        <ele>29.46</ele>
        <time>2016-05-04T08:30:51Z</time>
      </trkpt>
      <trkpt lat="45.03937" lon="-0.50185">
        <ele>29.46</ele>
        <time>2016-05-04T08:31:26Z</time>
      </trkpt>
      <trkpt lat="45.03939" lon="-0.50185">
        <ele>29.46</ele>
        <time>2016-05-04T08:32:04Z</time>
      </trkpt>
      <trkpt lat="45.03938" lon="-0.50183">
        <ele>28.98</ele>
        <time>2016-05-04T08:32:45Z</time>
      </trkpt>
      <trkpt lat="45.03939" lon="-0.50185">
        <ele>28.5</ele>
        <time>2016-05-04T08:33:25Z</time>
      </trkpt>
      <trkpt lat="45.03938" lon="-0.5019">
        <ele>28.5</ele>
        <time>2016-05-04T08:34:10Z</time>
      </trkpt>
      <trkpt lat="45.03939" lon="-0.50192">
        <ele>28.02</ele>
        <time>2016-05-04T08:34:56Z</time>
      </trkpt>
      <trkpt lat="45.03939" lon="-0.5019">
        <ele>28.02</ele>
        <time>2016-05-04T08:35:34Z</time>
      </trkpt>
      <trkpt lat="45.03938" lon="-0.50189">
        <ele>28.02</ele>
        <time>2016-05-04T08:36:10Z</time>
      </trkpt>
      <trkpt lat="45.03938" lon="-0.5019">
        <ele>28.02</ele>
        <time>2016-05-04T08:36:44Z</time>
      </trkpt>
      <trkpt lat="45.03939" lon="-0.5019">
        <ele>27.05</ele>
        <time>2016-05-04T08:37:23Z</time>
      </trkpt>
      <trkpt lat="45.03937" lon="-0.50189">
        <ele>27.05</ele>
        <time>2016-05-04T08:37:54Z</time>
      </trkpt>
      <trkpt lat="45.03938" lon="-0.5019">
        <ele>28.02</ele>
        <time>2016-05-04T08:38:00Z</time>
      </trkpt>
      <trkpt lat="45.03942" lon="-0.50188">
        <ele>28.02</ele>
        <time>2016-05-04T08:38:13Z</time>
      </trkpt>
      <trkpt lat="45.03944" lon="-0.50191">
        <ele>28.02</ele>
        <time>2016-05-04T08:38:35Z</time>
      </trkpt>
      <trkpt lat="45.03943" lon="-0.5019">
        <ele>28.02</ele>
        <time>2016-05-04T08:38:59Z</time>
      </trkpt>
      <trkpt lat="45.03945" lon="-0.50191">
        <ele>28.02</ele>
        <time>2016-05-04T08:39:20Z</time>
      </trkpt>
      <trkpt lat="45.03947" lon="-0.5019">
        <ele>28.02</ele>
        <time>2016-05-04T08:39:28Z</time>
      </trkpt>
      <trkpt lat="45.03954" lon="-0.50191">
        <ele>28.02</ele>
        <time>2016-05-04T08:39:36Z</time>
      </trkpt>
      <trkpt lat="45.0396" lon="-0.50195">
        <ele>28.5</ele>
        <time>2016-05-04T08:39:42Z</time>
      </trkpt>
      <trkpt lat="45.03963" lon="-0.50199">
        <ele>28.5</ele>
        <time>2016-05-04T08:39:48Z</time>
      </trkpt>
      <trkpt lat="45.03966" lon="-0.50209">
        <ele>28.5</ele>
        <time>2016-05-04T08:39:55Z</time>
      </trkpt>
      <trkpt lat="45.0397" lon="-0.50241">
        <ele>29.94</ele>
        <time>2016-05-04T08:40:14Z</time>
      </trkpt>
      <trkpt lat="45.03975" lon="-0.50267">
        <ele>29.94</ele>
        <time>2016-05-04T08:40:29Z</time>
      </trkpt>
      <trkpt lat="45.03977" lon="-0.50293">
        <ele>28.02</ele>
        <time>2016-05-04T08:40:45Z</time>
      </trkpt>
      <trkpt lat="45.03978" lon="-0.50297">
        <ele>27.53</ele>
        <time>2016-05-04T08:40:49Z</time>
      </trkpt>
      <trkpt lat="45.0399" lon="-0.5032">
        <ele>26.57</ele>
        <time>2016-05-04T08:41:05Z</time>
      </trkpt>
      <trkpt lat="45.04006" lon="-0.5033">
        <ele>25.13</ele>
        <time>2016-05-04T08:41:20Z</time>
      </trkpt>
      <trkpt lat="45.0402" lon="-0.50327">
        <ele>24.17</ele>
        <time>2016-05-04T08:41:34Z</time>
      </trkpt>
      <trkpt lat="45.04037" lon="-0.5032">
        <ele>24.17</ele>
        <time>2016-05-04T08:41:49Z</time>
      </trkpt>
      <trkpt lat="45.04045" lon="-0.50315">
        <ele>24.17</ele>
        <time>2016-05-04T08:41:56Z</time>
      </trkpt>
      <trkpt lat="45.04067" lon="-0.50308">
        <ele>24.17</ele>
        <time>2016-05-04T08:42:13Z</time>
      </trkpt>
      <trkpt lat="45.04083" lon="-0.503">
        <ele>23.21</ele>
        <time>2016-05-04T08:42:27Z</time>
      </trkpt>
      <trkpt lat="45.04095" lon="-0.50306">
        <ele>21.77</ele>
        <time>2016-05-04T08:42:40Z</time>
      </trkpt>
      <trkpt lat="45.04096" lon="-0.50308">
        <ele>20.81</ele>
        <time>2016-05-04T08:42:42Z</time>
      </trkpt>
      <trkpt lat="45.04097" lon="-0.50326">
        <ele>17.92</ele>
        <time>2016-05-04T08:42:59Z</time>
      </trkpt>
      <trkpt lat="45.04092" lon="-0.50344">
        <ele>15.52</ele>
        <time>2016-05-04T08:43:14Z</time>
      </trkpt>
      <trkpt lat="45.0409" lon="-0.5035">
        <ele>15.52</ele>
        <time>2016-05-04T08:43:19Z</time>
      </trkpt>
      <trkpt lat="45.04084" lon="-0.50372">
        <ele>13.6</ele>
        <time>2016-05-04T08:43:35Z</time>
      </trkpt>
      <trkpt lat="45.04077" lon="-0.50388">
        <ele>12.15</ele>
        <time>2016-05-04T08:43:49Z</time>
      </trkpt>
      <trkpt lat="45.04074" lon="-0.50401">
        <ele>10.23</ele>
        <time>2016-05-04T08:44:03Z</time>
      </trkpt>
      <trkpt lat="45.04077" lon="-0.50431">
        <ele>8.31</ele>
        <time>2016-05-04T08:44:21Z</time>
      </trkpt>
      <trkpt lat="45.04076" lon="-0.50439">
        <ele>8.31</ele>
        <time>2016-05-04T08:44:26Z</time>
      </trkpt>
      <trkpt lat="45.04073" lon="-0.50463">
        <ele>7.35</ele>
        <time>2016-05-04T08:44:42Z</time>
      </trkpt>
      <trkpt lat="45.04073" lon="-0.50479">
        <ele>6.87</ele>
        <time>2016-05-04T08:44:55Z</time>
      </trkpt>
      <trkpt lat="45.0407" lon="-0.50489">
        <ele>6.87</ele>
        <time>2016-05-04T08:45:20Z</time>
      </trkpt>
      <trkpt lat="45.04068" lon="-0.50492">
        <ele>7.35</ele>
        <time>2016-05-04T08:45:48Z</time>
      </trkpt>
      <trkpt lat="45.04068" lon="-0.50501">
        <ele>7.35</ele>
        <time>2016-05-04T08:46:04Z</time>
      </trkpt>
      <trkpt lat="45.04068" lon="-0.50504">
        <ele>7.35</ele>
        <time>2016-05-04T08:46:07Z</time>
      </trkpt>
      <trkpt lat="45.04071" lon="-0.50519">
        <ele>7.35</ele>
        <time>2016-05-04T08:46:22Z</time>
      </trkpt>
      <trkpt lat="45.04067" lon="-0.50521">
        <ele>7.35</ele>
        <time>2016-05-04T08:46:43Z</time>
      </trkpt>
      <trkpt lat="45.04075" lon="-0.50513">
        <ele>7.35</ele>
        <time>2016-05-04T08:46:57Z</time>
      </trkpt>
      <trkpt lat="45.04086" lon="-0.50507">
        <ele>7.35</ele>
        <time>2016-05-04T08:47:12Z</time>
      </trkpt>
      <trkpt lat="45.04093" lon="-0.50498">
        <ele>7.35</ele>
        <time>2016-05-04T08:47:24Z</time>
      </trkpt>
      <trkpt lat="45.04106" lon="-0.50486">
        <ele>7.83</ele>
        <time>2016-05-04T08:47:39Z</time>
      </trkpt>
      <trkpt lat="45.04122" lon="-0.50479">
        <ele>7.83</ele>
        <time>2016-05-04T08:47:54Z</time>
      </trkpt>
      <trkpt lat="45.0413" lon="-0.50475">
        <ele>7.83</ele>
        <time>2016-05-04T08:48:01Z</time>
      </trkpt>
      <trkpt lat="45.04146" lon="-0.50471">
        <ele>8.31</ele>
        <time>2016-05-04T08:48:16Z</time>
      </trkpt>
      <trkpt lat="45.04148" lon="-0.50471">
        <ele>8.31</ele>
        <time>2016-05-04T08:48:18Z</time>
      </trkpt>
      <trkpt lat="45.04171" lon="-0.50462">
        <ele>8.31</ele>
        <time>2016-05-04T08:48:37Z</time>
      </trkpt>
      <trkpt lat="45.0419" lon="-0.50456">
        <ele>8.79</ele>
        <time>2016-05-04T08:48:52Z</time>
      </trkpt>
      <trkpt lat="45.04195" lon="-0.50449">
        <ele>8.79</ele>
        <time>2016-05-04T08:48:58Z</time>
      </trkpt>
      <trkpt lat="45.04209" lon="-0.50437">
        <ele>9.27</ele>
        <time>2016-05-04T08:49:14Z</time>
      </trkpt>
      <trkpt lat="45.04219" lon="-0.50421">
        <ele>9.75</ele>
        <time>2016-05-04T08:49:27Z</time>
      </trkpt>
      <trkpt lat="45.04228" lon="-0.50406">
        <ele>9.75</ele>
        <time>2016-05-04T08:49:42Z</time>
      </trkpt>
      <trkpt lat="45.04229" lon="-0.50402">
        <ele>9.75</ele>
        <time>2016-05-04T08:49:46Z</time>
      </trkpt>
      <trkpt lat="45.04233" lon="-0.50379">
        <ele>10.23</ele>
        <time>2016-05-04T08:50:00Z</time>
      </trkpt>
      <trkpt lat="45.04238" lon="-0.50363">
        <ele>10.23</ele>
        <time>2016-05-04T08:50:12Z</time>
      </trkpt>
      <trkpt lat="45.04243" lon="-0.50349">
        <ele>10.71</ele>
        <time>2016-05-04T08:50:26Z</time>
      </trkpt>
      <trkpt lat="45.04247" lon="-0.50334">
        <ele>10.71</ele>
        <time>2016-05-04T08:50:39Z</time>
      </trkpt>
      <trkpt lat="45.0425" lon="-0.50323">
        <ele>12.15</ele>
        <time>2016-05-04T08:50:45Z</time>
      </trkpt>
      <trkpt lat="45.04253" lon="-0.50298">
        <ele>12.63</ele>
        <time>2016-05-04T08:50:57Z</time>
      </trkpt>
      <trkpt lat="45.04254" lon="-0.50281">
        <ele>13.12</ele>
        <time>2016-05-04T08:51:08Z</time>
      </trkpt>
      <trkpt lat="45.04258" lon="-0.50262">
        <ele>13.12</ele>
        <time>2016-05-04T08:51:20Z</time>
      </trkpt>
      <trkpt lat="45.04258" lon="-0.50243">
        <ele>13.12</ele>
        <time>2016-05-04T08:51:36Z</time>
      </trkpt>
      <trkpt lat="45.04262" lon="-0.50226">
        <ele>12.63</ele>
        <time>2016-05-04T08:51:51Z</time>
      </trkpt>
      <trkpt lat="45.04264" lon="-0.50212">
        <ele>12.63</ele>
        <time>2016-05-04T08:52:01Z</time>
      </trkpt>
      <trkpt lat="45.04264" lon="-0.50195">
        <ele>12.63</ele>
        <time>2016-05-04T08:52:15Z</time>
      </trkpt>
      <trkpt lat="45.04265" lon="-0.50177">
        <ele>13.12</ele>
        <time>2016-05-04T08:52:30Z</time>
      </trkpt>
      <trkpt lat="45.04263" lon="-0.5015">
        <ele>13.12</ele>
        <time>2016-05-04T08:52:45Z</time>
      </trkpt>
      <trkpt lat="45.04265" lon="-0.50134">
        <ele>13.12</ele>
        <time>2016-05-04T08:52:58Z</time>
      </trkpt>
      <trkpt lat="45.04263" lon="-0.50119">
        <ele>13.6</ele>
        <time>2016-05-04T08:53:13Z</time>
      </trkpt>
      <trkpt lat="45.04263" lon="-0.50106">
        <ele>13.6</ele>
        <time>2016-05-04T08:53:24Z</time>
      </trkpt>
      <trkpt lat="45.04269" lon="-0.50083">
        <ele>13.6</ele>
        <time>2016-05-04T08:53:38Z</time>
      </trkpt>
      <trkpt lat="45.04276" lon="-0.50078">
        <ele>13.6</ele>
        <time>2016-05-04T08:53:52Z</time>
      </trkpt>
      <trkpt lat="45.04279" lon="-0.50066">
        <ele>13.6</ele>
        <time>2016-05-04T08:54:07Z</time>
      </trkpt>
      <trkpt lat="45.04283" lon="-0.50047">
        <ele>13.6</ele>
        <time>2016-05-04T08:54:24Z</time>
      </trkpt>
      <trkpt lat="45.04283" lon="-0.50033">
        <ele>13.6</ele>
        <time>2016-05-04T08:54:40Z</time>
      </trkpt>
      <trkpt lat="45.04284" lon="-0.50014">
        <ele>13.6</ele>
        <time>2016-05-04T08:54:54Z</time>
      </trkpt>
      <trkpt lat="45.04286" lon="-0.49998">
        <ele>13.6</ele>
        <time>2016-05-04T08:55:08Z</time>
      </trkpt>
      <trkpt lat="45.04288" lon="-0.49984">
        <ele>13.6</ele>
        <time>2016-05-04T08:55:23Z</time>
      </trkpt>
      <trkpt lat="45.04292" lon="-0.49962">
        <ele>13.6</ele>
        <time>2016-05-04T08:55:38Z</time>
      </trkpt>
      <trkpt lat="45.04295" lon="-0.49935">
        <ele>14.08</ele>
        <time>2016-05-04T08:55:55Z</time>
      </trkpt>
      <trkpt lat="45.04299" lon="-0.49924">
        <ele>14.08</ele>
        <time>2016-05-04T08:56:04Z</time>
      </trkpt>
      <trkpt lat="45.043" lon="-0.49911">
        <ele>14.08</ele>
        <time>2016-05-04T08:56:12Z</time>
      </trkpt>
      <trkpt lat="45.04298" lon="-0.49892">
        <ele>14.08</ele>
        <time>2016-05-04T08:56:27Z</time>
      </trkpt>
      <trkpt lat="45.04298" lon="-0.49882">
        <ele>14.08</ele>
        <time>2016-05-04T08:56:44Z</time>
      </trkpt>
      <trkpt lat="45.04294" lon="-0.49878">
        <ele>14.08</ele>
        <time>2016-05-04T08:56:55Z</time>
      </trkpt>
      <trkpt lat="45.04287" lon="-0.49869">
        <ele>14.08</ele>
        <time>2016-05-04T08:57:05Z</time>
      </trkpt>
      <trkpt lat="45.0428" lon="-0.49855">
        <ele>14.08</ele>
        <time>2016-05-04T08:57:17Z</time>
      </trkpt>
      <trkpt lat="45.04276" lon="-0.49834">
        <ele>14.08</ele>
        <time>2016-05-04T08:57:34Z</time>
      </trkpt>
      <trkpt lat="45.04275" lon="-0.49816">
        <ele>14.08</ele>
        <time>2016-05-04T08:57:49Z</time>
      </trkpt>
      <trkpt lat="45.04272" lon="-0.49795">
        <ele>14.08</ele>
        <time>2016-05-04T08:58:04Z</time>
      </trkpt>
      <trkpt lat="45.04273" lon="-0.49776">
        <ele>14.08</ele>
        <time>2016-05-04T08:58:16Z</time>
      </trkpt>
      <trkpt lat="45.04272" lon="-0.49772">
        <ele>14.08</ele>
        <time>2016-05-04T08:58:19Z</time>
      </trkpt>
      <trkpt lat="45.04271" lon="-0.49756">
        <ele>14.08</ele>
        <time>2016-05-04T08:58:29Z</time>
      </trkpt>
      <trkpt lat="45.04268" lon="-0.49739">
        <ele>14.56</ele>
        <time>2016-05-04T08:58:43Z</time>
      </trkpt>
      <trkpt lat="45.04263" lon="-0.49726">
        <ele>14.56</ele>
        <time>2016-05-04T08:58:58Z</time>
      </trkpt>
      <trkpt lat="45.04264" lon="-0.49721">
        <ele>14.56</ele>
        <time>2016-05-04T08:59:16Z</time>
      </trkpt>
      <trkpt lat="45.04263" lon="-0.49715">
        <ele>15.52</ele>
        <time>2016-05-04T08:59:40Z</time>
      </trkpt>
      <trkpt lat="45.04248" lon="-0.49699">
        <ele>17.44</ele>
        <time>2016-05-04T08:59:56Z</time>
      </trkpt>
      <trkpt lat="45.04239" lon="-0.49684">
        <ele>17.92</ele>
        <time>2016-05-04T09:00:09Z</time>
      </trkpt>
      <trkpt lat="45.04229" lon="-0.49664">
        <ele>18.4</ele>
        <time>2016-05-04T09:00:22Z</time>
      </trkpt>
      <trkpt lat="45.04224" lon="-0.49646">
        <ele>19.36</ele>
        <time>2016-05-04T09:00:35Z</time>
      </trkpt>
      <trkpt lat="45.04221" lon="-0.49633">
        <ele>19.84</ele>
        <time>2016-05-04T09:00:50Z</time>
      </trkpt>
      <trkpt lat="45.04218" lon="-0.4963">
        <ele>21.77</ele>
        <time>2016-05-04T09:01:01Z</time>
      </trkpt>
      <trkpt lat="45.0421" lon="-0.49627">
        <ele>23.69</ele>
        <time>2016-05-04T09:01:16Z</time>
      </trkpt>
      <trkpt lat="45.04207" lon="-0.49627">
        <ele>25.13</ele>
        <time>2016-05-04T09:01:33Z</time>
      </trkpt>
      <trkpt lat="45.04199" lon="-0.49638">
        <ele>28.02</ele>
        <time>2016-05-04T09:01:47Z</time>
      </trkpt>
      <trkpt lat="45.04189" lon="-0.49647">
        <ele>30.9</ele>
        <time>2016-05-04T09:02:00Z</time>
      </trkpt>
      <trkpt lat="45.04182" lon="-0.49656">
        <ele>34.26</ele>
        <time>2016-05-04T09:02:13Z</time>
      </trkpt>
      <trkpt lat="45.04165" lon="-0.4966">
        <ele>35.23</ele>
        <time>2016-05-04T09:02:28Z</time>
      </trkpt>
      <trkpt lat="45.04161" lon="-0.49664">
        <ele>35.71</ele>
        <time>2016-05-04T09:02:42Z</time>
      </trkpt>
      <trkpt lat="45.04159" lon="-0.49661">
        <ele>35.71</ele>
        <time>2016-05-04T09:02:59Z</time>
      </trkpt>
      <trkpt lat="45.0416" lon="-0.49657">
        <ele>35.71</ele>
        <time>2016-05-04T09:03:02Z</time>
      </trkpt>
      <trkpt lat="45.04162" lon="-0.49634">
        <ele>37.15</ele>
        <time>2016-05-04T09:03:18Z</time>
      </trkpt>
      <trkpt lat="45.04162" lon="-0.49607">
        <ele>37.15</ele>
        <time>2016-05-04T09:03:34Z</time>
      </trkpt>
      <trkpt lat="45.04163" lon="-0.49582">
        <ele>37.15</ele>
        <time>2016-05-04T09:03:48Z</time>
      </trkpt>
      <trkpt lat="45.04151" lon="-0.49568">
        <ele>37.15</ele>
        <time>2016-05-04T09:04:03Z</time>
      </trkpt>
      <trkpt lat="45.04139" lon="-0.49558">
        <ele>37.15</ele>
        <time>2016-05-04T09:04:15Z</time>
      </trkpt>
      <trkpt lat="45.04126" lon="-0.49546">
        <ele>35.71</ele>
        <time>2016-05-04T09:04:32Z</time>
      </trkpt>
      <trkpt lat="45.04118" lon="-0.49536">
        <ele>35.23</ele>
        <time>2016-05-04T09:04:44Z</time>
      </trkpt>
      <trkpt lat="45.04112" lon="-0.49528">
        <ele>34.26</ele>
        <time>2016-05-04T09:04:58Z</time>
      </trkpt>
      <trkpt lat="45.0411" lon="-0.49526">
        <ele>34.26</ele>
        <time>2016-05-04T09:05:01Z</time>
      </trkpt>
      <trkpt lat="45.04103" lon="-0.49515">
        <ele>33.78</ele>
        <time>2016-05-04T09:05:12Z</time>
      </trkpt>
      <trkpt lat="45.04111" lon="-0.49482">
        <ele>33.78</ele>
        <time>2016-05-04T09:05:32Z</time>
      </trkpt>
      <trkpt lat="45.04123" lon="-0.49462">
        <ele>34.74</ele>
        <time>2016-05-04T09:05:49Z</time>
      </trkpt>
      <trkpt lat="45.0413" lon="-0.4946">
        <ele>35.23</ele>
        <time>2016-05-04T09:05:56Z</time>
      </trkpt>
      <trkpt lat="45.04143" lon="-0.4947">
        <ele>35.71</ele>
        <time>2016-05-04T09:06:11Z</time>
      </trkpt>
      <trkpt lat="45.04142" lon="-0.49486">
        <ele>36.19</ele>
        <time>2016-05-04T09:06:22Z</time>
      </trkpt>
      <trkpt lat="45.0414" lon="-0.49495">
        <ele>36.19</ele>
        <time>2016-05-04T09:06:38Z</time>
      </trkpt>
      <trkpt lat="45.04138" lon="-0.49496">
        <ele>36.19</ele>
        <time>2016-05-04T09:07:11Z</time>
      </trkpt>
      <trkpt lat="45.0414" lon="-0.49493">
        <ele>36.19</ele>
        <time>2016-05-04T09:07:23Z</time>
      </trkpt>
      <trkpt lat="45.04141" lon="-0.49474">
        <ele>36.19</ele>
        <time>2016-05-04T09:07:41Z</time>
      </trkpt>
      <trkpt lat="45.04141" lon="-0.49471">
        <ele>36.19</ele>
        <time>2016-05-04T09:07:44Z</time>
      </trkpt>
      <trkpt lat="45.0414" lon="-0.49463">
        <ele>36.19</ele>
        <time>2016-05-04T09:07:50Z</time>
      </trkpt>
      <trkpt lat="45.04146" lon="-0.49434">
        <ele>36.19</ele>
        <time>2016-05-04T09:08:07Z</time>
      </trkpt>
      <trkpt lat="45.04149" lon="-0.49421">
        <ele>37.15</ele>
        <time>2016-05-04T09:08:18Z</time>
      </trkpt>
      <trkpt lat="45.04164" lon="-0.49411">
        <ele>37.63</ele>
        <time>2016-05-04T09:08:33Z</time>
      </trkpt>
      <trkpt lat="45.04166" lon="-0.49417">
        <ele>38.11</ele>
        <time>2016-05-04T09:08:45Z</time>
      </trkpt>
      <trkpt lat="45.04167" lon="-0.49416">
        <ele>38.11</ele>
        <time>2016-05-04T09:08:58Z</time>
      </trkpt>
      <trkpt lat="45.04167" lon="-0.49414">
        <ele>38.11</ele>
        <time>2016-05-04T09:09:13Z</time>
      </trkpt>
      <trkpt lat="45.04165" lon="-0.49409">
        <ele>38.11</ele>
        <time>2016-05-04T09:09:27Z</time>
      </trkpt>
      <trkpt lat="45.04166" lon="-0.49392">
        <ele>38.11</ele>
        <time>2016-05-04T09:09:42Z</time>
      </trkpt>
      <trkpt lat="45.04171" lon="-0.49382">
        <ele>38.11</ele>
        <time>2016-05-04T09:10:05Z</time>
      </trkpt>
      <trkpt lat="45.04176" lon="-0.49381">
        <ele>37.63</ele>
        <time>2016-05-04T09:10:22Z</time>
      </trkpt>
      <trkpt lat="45.04181" lon="-0.49386">
        <ele>37.63</ele>
        <time>2016-05-04T09:10:34Z</time>
      </trkpt>
      <trkpt lat="45.04183" lon="-0.49384">
        <ele>37.63</ele>
        <time>2016-05-04T09:10:51Z</time>
      </trkpt>
      <trkpt lat="45.04183" lon="-0.49384">
        <ele>37.63</ele>
        <time>2016-05-04T09:11:04Z</time>
      </trkpt>
      <trkpt lat="45.04182" lon="-0.49385">
        <ele>37.63</ele>
        <time>2016-05-04T09:11:15Z</time>
      </trkpt>
      <trkpt lat="45.04174" lon="-0.49388">
        <ele>37.15</ele>
        <time>2016-05-04T09:11:25Z</time>
      </trkpt>
      <trkpt lat="45.0417" lon="-0.49394">
        <ele>37.15</ele>
        <time>2016-05-04T09:11:31Z</time>
      </trkpt>
      <trkpt lat="45.04161" lon="-0.4941">
        <ele>35.71</ele>
        <time>2016-05-04T09:11:48Z</time>
      </trkpt>
      <trkpt lat="45.0416" lon="-0.49407">
        <ele>35.71</ele>
        <time>2016-05-04T09:11:50Z</time>
      </trkpt>
      <trkpt lat="45.04159" lon="-0.49385">
        <ele>34.74</ele>
        <time>2016-05-04T09:12:04Z</time>
      </trkpt>
      <trkpt lat="45.04171" lon="-0.49361">
        <ele>34.26</ele>
        <time>2016-05-04T09:12:25Z</time>
      </trkpt>
      <trkpt lat="45.0418" lon="-0.49355">
        <ele>33.78</ele>
        <time>2016-05-04T09:12:39Z</time>
      </trkpt>
      <trkpt lat="45.04183" lon="-0.49358">
        <ele>33.3</ele>
        <time>2016-05-04T09:12:46Z</time>
      </trkpt>
      <trkpt lat="45.04189" lon="-0.49366">
        <ele>32.34</ele>
        <time>2016-05-04T09:13:01Z</time>
      </trkpt>
      <trkpt lat="45.04193" lon="-0.49363">
        <ele>29.94</ele>
        <time>2016-05-04T09:13:13Z</time>
      </trkpt>
      <trkpt lat="45.04198" lon="-0.49369">
        <ele>27.53</ele>
        <time>2016-05-04T09:13:26Z</time>
      </trkpt>
      <trkpt lat="45.04199" lon="-0.49366">
        <ele>27.05</ele>
        <time>2016-05-04T09:13:29Z</time>
      </trkpt>
      <trkpt lat="45.04199" lon="-0.49362">
        <ele>26.57</ele>
        <time>2016-05-04T09:13:33Z</time>
      </trkpt>
      <trkpt lat="45.04201" lon="-0.49358">
        <ele>25.13</ele>
        <time>2016-05-04T09:13:40Z</time>
      </trkpt>
      <trkpt lat="45.04209" lon="-0.49361">
        <ele>21.77</ele>
        <time>2016-05-04T09:13:55Z</time>
      </trkpt>
      <trkpt lat="45.04217" lon="-0.4936">
        <ele>18.4</ele>
        <time>2016-05-04T09:14:06Z</time>
      </trkpt>
      <trkpt lat="45.04226" lon="-0.49358">
        <ele>16.48</ele>
        <time>2016-05-04T09:14:18Z</time>
      </trkpt>
      <trkpt lat="45.0424" lon="-0.49355">
        <ele>14.08</ele>
        <time>2016-05-04T09:14:34Z</time>
      </trkpt>
      <trkpt lat="45.04248" lon="-0.49351">
        <ele>13.6</ele>
        <time>2016-05-04T09:14:49Z</time>
      </trkpt>
      <trkpt lat="45.04257" lon="-0.49359">
        <ele>13.6</ele>
        <time>2016-05-04T09:15:06Z</time>
      </trkpt>
      <trkpt lat="45.04262" lon="-0.49377">
        <ele>13.6</ele>
        <time>2016-05-04T09:15:20Z</time>
      </trkpt>
      <trkpt lat="45.04266" lon="-0.4941">
        <ele>15.04</ele>
        <time>2016-05-04T09:15:36Z</time>
      </trkpt>
      <trkpt lat="45.04259" lon="-0.49438">
        <ele>16</ele>
        <time>2016-05-04T09:15:51Z</time>
      </trkpt>
      <trkpt lat="45.04258" lon="-0.49459">
        <ele>16</ele>
        <time>2016-05-04T09:16:06Z</time>
      </trkpt>
      <trkpt lat="45.04257" lon="-0.4948">
        <ele>16</ele>
        <time>2016-05-04T09:16:18Z</time>
      </trkpt>
      <trkpt lat="45.04255" lon="-0.49499">
        <ele>16</ele>
        <time>2016-05-04T09:16:33Z</time>
      </trkpt>
      <trkpt lat="45.04255" lon="-0.49517">
        <ele>16.48</ele>
        <time>2016-05-04T09:16:44Z</time>
      </trkpt>
      <trkpt lat="45.04255" lon="-0.49521">
        <ele>16.48</ele>
        <time>2016-05-04T09:16:46Z</time>
      </trkpt>
      <trkpt lat="45.04248" lon="-0.49547">
        <ele>17.44</ele>
        <time>2016-05-04T09:17:02Z</time>
      </trkpt>
      <trkpt lat="45.04239" lon="-0.49566">
        <ele>18.88</ele>
        <time>2016-05-04T09:17:15Z</time>
      </trkpt>
      <trkpt lat="45.04239" lon="-0.49582">
        <ele>19.36</ele>
        <time>2016-05-04T09:17:26Z</time>
      </trkpt>
      <trkpt lat="45.04234" lon="-0.496">
        <ele>19.36</ele>
        <time>2016-05-04T09:17:41Z</time>
      </trkpt>
      <trkpt lat="45.04231" lon="-0.49611">
        <ele>17.92</ele>
        <time>2016-05-04T09:17:53Z</time>
      </trkpt>
      <trkpt lat="45.04232" lon="-0.49629">
        <ele>17.92</ele>
        <time>2016-05-04T09:18:07Z</time>
      </trkpt>
      <trkpt lat="45.04234" lon="-0.49648">
        <ele>17.44</ele>
        <time>2016-05-04T09:18:21Z</time>
      </trkpt>
      <trkpt lat="45.04237" lon="-0.49659">
        <ele>16.96</ele>
        <time>2016-05-04T09:18:35Z</time>
      </trkpt>
      <trkpt lat="45.04243" lon="-0.49676">
        <ele>15.52</ele>
        <time>2016-05-04T09:18:48Z</time>
      </trkpt>
      <trkpt lat="45.0425" lon="-0.49688">
        <ele>14.08</ele>
        <time>2016-05-04T09:19:04Z</time>
      </trkpt>
      <trkpt lat="45.04254" lon="-0.49692">
        <ele>14.08</ele>
        <time>2016-05-04T09:19:17Z</time>
      </trkpt>
      <trkpt lat="45.04254" lon="-0.4968">
        <ele>14.56</ele>
        <time>2016-05-04T09:19:33Z</time>
      </trkpt>
      <trkpt lat="45.04256" lon="-0.49665">
        <ele>14.56</ele>
        <time>2016-05-04T09:19:46Z</time>
      </trkpt>
      <trkpt lat="45.04255" lon="-0.49654">
        <ele>14.56</ele>
        <time>2016-05-04T09:19:55Z</time>
      </trkpt>
      <trkpt lat="45.04255" lon="-0.49649">
        <ele>14.56</ele>
        <time>2016-05-04T09:19:58Z</time>
      </trkpt>
      <trkpt lat="45.04253" lon="-0.49631">
        <ele>14.56</ele>
        <time>2016-05-04T09:20:11Z</time>
      </trkpt>
      <trkpt lat="45.04252" lon="-0.49616">
        <ele>14.56</ele>
        <time>2016-05-04T09:20:20Z</time>
      </trkpt>
      <trkpt lat="45.04252" lon="-0.49613">
        <ele>15.04</ele>
        <time>2016-05-04T09:20:22Z</time>
      </trkpt>
      <trkpt lat="45.04255" lon="-0.49587">
        <ele>15.04</ele>
        <time>2016-05-04T09:20:39Z</time>
      </trkpt>
      <trkpt lat="45.04256" lon="-0.49567">
        <ele>15.04</ele>
        <time>2016-05-04T09:20:53Z</time>
      </trkpt>
      <trkpt lat="45.04261" lon="-0.4955">
        <ele>15.04</ele>
        <time>2016-05-04T09:21:07Z</time>
      </trkpt>
      <trkpt lat="45.0427" lon="-0.49534">
        <ele>15.04</ele>
        <time>2016-05-04T09:21:20Z</time>
      </trkpt>
      <trkpt lat="45.04282" lon="-0.49534">
        <ele>15.52</ele>
        <time>2016-05-04T09:21:37Z</time>
      </trkpt>
      <trkpt lat="45.04288" lon="-0.49541">
        <ele>15.52</ele>
        <time>2016-05-04T09:21:47Z</time>
      </trkpt>
      <trkpt lat="45.04299" lon="-0.49555">
        <ele>15.52</ele>
        <time>2016-05-04T09:22:00Z</time>
      </trkpt>
      <trkpt lat="45.04312" lon="-0.49567">
        <ele>15.04</ele>
        <time>2016-05-04T09:22:17Z</time>
      </trkpt>
      <trkpt lat="45.04325" lon="-0.49574">
        <ele>15.04</ele>
        <time>2016-05-04T09:22:31Z</time>
      </trkpt>
      <trkpt lat="45.04331" lon="-0.49577">
        <ele>15.04</ele>
        <time>2016-05-04T09:22:39Z</time>
      </trkpt>
      <trkpt lat="45.04348" lon="-0.4959">
        <ele>15.04</ele>
        <time>2016-05-04T09:22:55Z</time>
      </trkpt>
      <trkpt lat="45.04366" lon="-0.496">
        <ele>15.04</ele>
        <time>2016-05-04T09:23:12Z</time>
      </trkpt>
      <trkpt lat="45.0438" lon="-0.49604">
        <ele>15.04</ele>
        <time>2016-05-04T09:23:25Z</time>
      </trkpt>
      <trkpt lat="45.04385" lon="-0.496">
        <ele>15.04</ele>
        <time>2016-05-04T09:23:39Z</time>
      </trkpt>
      <trkpt lat="45.04387" lon="-0.49601">
        <ele>15.04</ele>
        <time>2016-05-04T09:23:53Z</time>
      </trkpt>
      <trkpt lat="45.04387" lon="-0.49597">
        <ele>15.04</ele>
        <time>2016-05-04T09:24:09Z</time>
      </trkpt>
      <trkpt lat="45.0439" lon="-0.49576">
        <ele>15.04</ele>
        <time>2016-05-04T09:24:26Z</time>
      </trkpt>
      <trkpt lat="45.04398" lon="-0.49553">
        <ele>15.04</ele>
        <time>2016-05-04T09:24:43Z</time>
      </trkpt>
      <trkpt lat="45.04406" lon="-0.49534">
        <ele>16</ele>
        <time>2016-05-04T09:24:58Z</time>
      </trkpt>
      <trkpt lat="45.04417" lon="-0.49512">
        <ele>16</ele>
        <time>2016-05-04T09:25:12Z</time>
      </trkpt>
      <trkpt lat="45.04426" lon="-0.49493">
        <ele>16</ele>
        <time>2016-05-04T09:25:28Z</time>
      </trkpt>
      <trkpt lat="45.04428" lon="-0.4949">
        <ele>16</ele>
        <time>2016-05-04T09:25:31Z</time>
      </trkpt>
      <trkpt lat="45.04439" lon="-0.49467">
        <ele>16</ele>
        <time>2016-05-04T09:25:47Z</time>
      </trkpt>
      <trkpt lat="45.04447" lon="-0.49449">
        <ele>16</ele>
        <time>2016-05-04T09:25:59Z</time>
      </trkpt>
      <trkpt lat="45.04461" lon="-0.49419">
        <ele>16</ele>
        <time>2016-05-04T09:26:18Z</time>
      </trkpt>
      <trkpt lat="45.04471" lon="-0.49395">
        <ele>16</ele>
        <time>2016-05-04T09:26:35Z</time>
      </trkpt>
      <trkpt lat="45.04483" lon="-0.49376">
        <ele>16</ele>
        <time>2016-05-04T09:26:51Z</time>
      </trkpt>
      <trkpt lat="45.04487" lon="-0.49361">
        <ele>16</ele>
        <time>2016-05-04T09:27:04Z</time>
      </trkpt>
      <trkpt lat="45.045" lon="-0.49333">
        <ele>16</ele>
        <time>2016-05-04T09:27:24Z</time>
      </trkpt>
      <trkpt lat="45.04514" lon="-0.49319">
        <ele>16</ele>
        <time>2016-05-04T09:27:39Z</time>
      </trkpt>
      <trkpt lat="45.04529" lon="-0.49308">
        <ele>16</ele>
        <time>2016-05-04T09:27:57Z</time>
      </trkpt>
      <trkpt lat="45.04536" lon="-0.493">
        <ele>16</ele>
        <time>2016-05-04T09:28:05Z</time>
      </trkpt>
      <trkpt lat="45.04542" lon="-0.49286">
        <ele>16</ele>
        <time>2016-05-04T09:28:19Z</time>
      </trkpt>
      <trkpt lat="45.04542" lon="-0.49265">
        <ele>16</ele>
        <time>2016-05-04T09:28:35Z</time>
      </trkpt>
      <trkpt lat="45.04544" lon="-0.49251">
        <ele>16</ele>
        <time>2016-05-04T09:28:49Z</time>
      </trkpt>
      <trkpt lat="45.04542" lon="-0.49232">
        <ele>16</ele>
        <time>2016-05-04T09:29:00Z</time>
      </trkpt>
      <trkpt lat="45.04542" lon="-0.49215">
        <ele>16</ele>
        <time>2016-05-04T09:29:11Z</time>
      </trkpt>
      <trkpt lat="45.04541" lon="-0.49187">
        <ele>16</ele>
        <time>2016-05-04T09:29:27Z</time>
      </trkpt>
      <trkpt lat="45.04541" lon="-0.49159">
        <ele>16.48</ele>
        <time>2016-05-04T09:29:43Z</time>
      </trkpt>
      <trkpt lat="45.04541" lon="-0.49132">
        <ele>16.48</ele>
        <time>2016-05-04T09:29:58Z</time>
      </trkpt>
      <trkpt lat="45.04542" lon="-0.49108">
        <ele>16.48</ele>
        <time>2016-05-04T09:30:13Z</time>
      </trkpt>
      <trkpt lat="45.04554" lon="-0.49087">
        <ele>16.48</ele>
        <time>2016-05-04T09:30:28Z</time>
      </trkpt>
      <trkpt lat="45.04568" lon="-0.49072">
        <ele>16.48</ele>
        <time>2016-05-04T09:30:41Z</time>
      </trkpt>
      <trkpt lat="45.04588" lon="-0.49054">
        <ele>16.48</ele>
        <time>2016-05-04T09:30:56Z</time>
      </trkpt>
      <trkpt lat="45.04603" lon="-0.49047">
        <ele>16.48</ele>
        <time>2016-05-04T09:31:11Z</time>
      </trkpt>
      <trkpt lat="45.0462" lon="-0.49037">
        <ele>16.48</ele>
        <time>2016-05-04T09:31:27Z</time>
      </trkpt>
      <trkpt lat="45.04637" lon="-0.49025">
        <ele>16.48</ele>
        <time>2016-05-04T09:31:43Z</time>
      </trkpt>
      <trkpt lat="45.04653" lon="-0.49012">
        <ele>16.48</ele>
        <time>2016-05-04T09:32:01Z</time>
      </trkpt>
      <trkpt lat="45.04663" lon="-0.49015">
        <ele>16.48</ele>
        <time>2016-05-04T09:32:25Z</time>
      </trkpt>
      <trkpt lat="45.04665" lon="-0.49006">
        <ele>16.48</ele>
        <time>2016-05-04T09:32:53Z</time>
      </trkpt>
      <trkpt lat="45.0467" lon="-0.48988">
        <ele>16.48</ele>
        <time>2016-05-04T09:33:10Z</time>
      </trkpt>
      <trkpt lat="45.04674" lon="-0.48979">
        <ele>16.48</ele>
        <time>2016-05-04T09:33:18Z</time>
      </trkpt>
      <trkpt lat="45.04683" lon="-0.48957">
        <ele>16.48</ele>
        <time>2016-05-04T09:33:35Z</time>
      </trkpt>
      <trkpt lat="45.04694" lon="-0.48939">
        <ele>16.48</ele>
        <time>2016-05-04T09:33:50Z</time>
      </trkpt>
      <trkpt lat="45.04705" lon="-0.48919">
        <ele>16</ele>
        <time>2016-05-04T09:34:06Z</time>
      </trkpt>
      <trkpt lat="45.04716" lon="-0.48901">
        <ele>16</ele>
        <time>2016-05-04T09:34:22Z</time>
      </trkpt>
      <trkpt lat="45.04731" lon="-0.48877">
        <ele>16</ele>
        <time>2016-05-04T09:34:39Z</time>
      </trkpt>
      <trkpt lat="45.04745" lon="-0.48856">
        <ele>16</ele>
        <time>2016-05-04T09:34:57Z</time>
      </trkpt>
      <trkpt lat="45.04761" lon="-0.48835">
        <ele>16</ele>
        <time>2016-05-04T09:35:16Z</time>
      </trkpt>
      <trkpt lat="45.04769" lon="-0.48824">
        <ele>16</ele>
        <time>2016-05-04T09:35:31Z</time>
      </trkpt>
      <trkpt lat="45.04784" lon="-0.48805">
        <ele>16</ele>
        <time>2016-05-04T09:35:49Z</time>
      </trkpt>
      <trkpt lat="45.04803" lon="-0.48792">
        <ele>16</ele>
        <time>2016-05-04T09:36:06Z</time>
      </trkpt>
      <trkpt lat="45.04828" lon="-0.4879">
        <ele>16</ele>
        <time>2016-05-04T09:36:24Z</time>
      </trkpt>
      <trkpt lat="45.04835" lon="-0.48788">
        <ele>16</ele>
        <time>2016-05-04T09:36:39Z</time>
      </trkpt>
      <trkpt lat="45.04851" lon="-0.48772">
        <ele>16</ele>
        <time>2016-05-04T09:36:57Z</time>
      </trkpt>
      <trkpt lat="45.04853" lon="-0.4877">
        <ele>16</ele>
        <time>2016-05-04T09:36:59Z</time>
      </trkpt>
      <trkpt lat="45.04862" lon="-0.48747">
        <ele>16</ele>
        <time>2016-05-04T09:37:17Z</time>
      </trkpt>
      <trkpt lat="45.04873" lon="-0.48726">
        <ele>16</ele>
        <time>2016-05-04T09:37:32Z</time>
      </trkpt>
      <trkpt lat="45.04882" lon="-0.48705">
        <ele>16</ele>
        <time>2016-05-04T09:37:47Z</time>
      </trkpt>
      <trkpt lat="45.04892" lon="-0.48692">
        <ele>16</ele>
        <time>2016-05-04T09:37:59Z</time>
      </trkpt>
      <trkpt lat="45.04905" lon="-0.48679">
        <ele>16</ele>
        <time>2016-05-04T09:38:14Z</time>
      </trkpt>
      <trkpt lat="45.04919" lon="-0.48663">
        <ele>16</ele>
        <time>2016-05-04T09:38:31Z</time>
      </trkpt>
      <trkpt lat="45.04931" lon="-0.48651">
        <ele>16</ele>
        <time>2016-05-04T09:38:44Z</time>
      </trkpt>
      <trkpt lat="45.04944" lon="-0.48631">
        <ele>16</ele>
        <time>2016-05-04T09:38:59Z</time>
      </trkpt>
      <trkpt lat="45.04956" lon="-0.48613">
        <ele>16</ele>
        <time>2016-05-04T09:39:14Z</time>
      </trkpt>
      <trkpt lat="45.04959" lon="-0.48607">
        <ele>16</ele>
        <time>2016-05-04T09:39:19Z</time>
      </trkpt>
      <trkpt lat="45.04971" lon="-0.48587">
        <ele>16</ele>
        <time>2016-05-04T09:39:37Z</time>
      </trkpt>
      <trkpt lat="45.04983" lon="-0.48567">
        <ele>16</ele>
        <time>2016-05-04T09:39:56Z</time>
      </trkpt>
      <trkpt lat="45.04984" lon="-0.48568">
        <ele>16</ele>
        <time>2016-05-04T09:40:00Z</time>
      </trkpt>
      <trkpt lat="45.05001" lon="-0.48545">
        <ele>15.52</ele>
        <time>2016-05-04T09:40:18Z</time>
      </trkpt>
      <trkpt lat="45.05005" lon="-0.48537">
        <ele>15.52</ele>
        <time>2016-05-04T09:40:32Z</time>
      </trkpt>
      <trkpt lat="45.0501" lon="-0.48534">
        <ele>15.52</ele>
        <time>2016-05-04T09:40:49Z</time>
      </trkpt>
      <trkpt lat="45.05009" lon="-0.48535">
        <ele>15.52</ele>
        <time>2016-05-04T09:41:15Z</time>
      </trkpt>
      <trkpt lat="45.05014" lon="-0.48529">
        <ele>15.52</ele>
        <time>2016-05-04T09:41:41Z</time>
      </trkpt>
      <trkpt lat="45.05022" lon="-0.48519">
        <ele>15.52</ele>
        <time>2016-05-04T09:41:57Z</time>
      </trkpt>
      <trkpt lat="45.05029" lon="-0.48512">
        <ele>15.04</ele>
        <time>2016-05-04T09:42:10Z</time>
      </trkpt>
      <trkpt lat="45.05043" lon="-0.485">
        <ele>15.04</ele>
        <time>2016-05-04T09:42:24Z</time>
      </trkpt>
      <trkpt lat="45.05056" lon="-0.48484">
        <ele>15.04</ele>
        <time>2016-05-04T09:42:40Z</time>
      </trkpt>
      <trkpt lat="45.05059" lon="-0.48479">
        <ele>15.04</ele>
        <time>2016-05-04T09:42:45Z</time>
      </trkpt>
      <trkpt lat="45.05064" lon="-0.48473">
        <ele>15.04</ele>
        <time>2016-05-04T09:42:51Z</time>
      </trkpt>
      <trkpt lat="45.05067" lon="-0.4847">
        <ele>15.04</ele>
        <time>2016-05-04T09:42:54Z</time>
      </trkpt>
      <trkpt lat="45.05078" lon="-0.48455">
        <ele>15.04</ele>
        <time>2016-05-04T09:43:08Z</time>
      </trkpt>
      <trkpt lat="45.05093" lon="-0.48437">
        <ele>15.04</ele>
        <time>2016-05-04T09:43:24Z</time>
      </trkpt>
      <trkpt lat="45.05108" lon="-0.48419">
        <ele>15.04</ele>
        <time>2016-05-04T09:43:41Z</time>
      </trkpt>
      <trkpt lat="45.05124" lon="-0.48402">
        <ele>15.04</ele>
        <time>2016-05-04T09:43:58Z</time>
      </trkpt>
      <trkpt lat="45.05134" lon="-0.48386">
        <ele>15.52</ele>
        <time>2016-05-04T09:44:09Z</time>
      </trkpt>
      <trkpt lat="45.05154" lon="-0.48365">
        <ele>15.52</ele>
        <time>2016-05-04T09:44:29Z</time>
      </trkpt>
      <trkpt lat="45.05169" lon="-0.48348">
        <ele>15.52</ele>
        <time>2016-05-04T09:44:45Z</time>
      </trkpt>
      <trkpt lat="45.05182" lon="-0.48331">
        <ele>15.52</ele>
        <time>2016-05-04T09:45:02Z</time>
      </trkpt>
      <trkpt lat="45.05192" lon="-0.48314">
        <ele>15.52</ele>
        <time>2016-05-04T09:45:17Z</time>
      </trkpt>
      <trkpt lat="45.05204" lon="-0.48295">
        <ele>15.52</ele>
        <time>2016-05-04T09:45:33Z</time>
      </trkpt>
      <trkpt lat="45.05217" lon="-0.48273">
        <ele>15.52</ele>
        <time>2016-05-04T09:45:52Z</time>
      </trkpt>
      <trkpt lat="45.05218" lon="-0.48272">
        <ele>15.52</ele>
        <time>2016-05-04T09:45:53Z</time>
      </trkpt>
      <trkpt lat="45.05228" lon="-0.48255">
        <ele>15.52</ele>
        <time>2016-05-04T09:46:08Z</time>
      </trkpt>
      <trkpt lat="45.05234" lon="-0.48237">
        <ele>15.52</ele>
        <time>2016-05-04T09:46:23Z</time>
      </trkpt>
      <trkpt lat="45.05243" lon="-0.48226">
        <ele>15.52</ele>
        <time>2016-05-04T09:46:36Z</time>
      </trkpt>
      <trkpt lat="45.05249" lon="-0.48211">
        <ele>15.04</ele>
        <time>2016-05-04T09:46:51Z</time>
      </trkpt>
      <trkpt lat="45.05256" lon="-0.48193">
        <ele>15.04</ele>
        <time>2016-05-04T09:47:05Z</time>
      </trkpt>
      <trkpt lat="45.05263" lon="-0.48172">
        <ele>15.52</ele>
        <time>2016-05-04T09:47:22Z</time>
      </trkpt>
      <trkpt lat="45.05269" lon="-0.48159">
        <ele>15.52</ele>
        <time>2016-05-04T09:47:35Z</time>
      </trkpt>
      <trkpt lat="45.05276" lon="-0.48148">
        <ele>15.52</ele>
        <time>2016-05-04T09:47:49Z</time>
      </trkpt>
      <trkpt lat="45.05285" lon="-0.48137">
        <ele>15.52</ele>
        <time>2016-05-04T09:48:02Z</time>
      </trkpt>
      <trkpt lat="45.05291" lon="-0.48127">
        <ele>16</ele>
        <time>2016-05-04T09:48:14Z</time>
      </trkpt>
      <trkpt lat="45.05306" lon="-0.4812">
        <ele>16.48</ele>
        <time>2016-05-04T09:48:29Z</time>
      </trkpt>
      <trkpt lat="45.05316" lon="-0.48118">
        <ele>17.44</ele>
        <time>2016-05-04T09:48:45Z</time>
      </trkpt>
      <trkpt lat="45.05322" lon="-0.48123">
        <ele>17.44</ele>
        <time>2016-05-04T09:49:09Z</time>
      </trkpt>
      <trkpt lat="45.05322" lon="-0.48124">
        <ele>17.44</ele>
        <time>2016-05-04T09:49:40Z</time>
      </trkpt>
      <trkpt lat="45.05322" lon="-0.48128">
        <ele>17.44</ele>
        <time>2016-05-04T09:50:09Z</time>
      </trkpt>
      <trkpt lat="45.05322" lon="-0.48125">
        <ele>17.44</ele>
        <time>2016-05-04T09:50:27Z</time>
      </trkpt>
      <trkpt lat="45.05317" lon="-0.48121">
        <ele>17.44</ele>
        <time>2016-05-04T09:51:04Z</time>
      </trkpt>
      <trkpt lat="45.05321" lon="-0.48118">
        <ele>17.44</ele>
        <time>2016-05-04T09:51:31Z</time>
      </trkpt>
      <trkpt lat="45.05321" lon="-0.48111">
        <ele>17.44</ele>
        <time>2016-05-04T09:51:57Z</time>
      </trkpt>
      <trkpt lat="45.05322" lon="-0.48116">
        <ele>17.44</ele>
        <time>2016-05-04T09:52:19Z</time>
      </trkpt>
      <trkpt lat="45.05306" lon="-0.4812">
        <ele>17.44</ele>
        <time>2016-05-04T09:52:37Z</time>
      </trkpt>
      <trkpt lat="45.05291" lon="-0.48112">
        <ele>16.96</ele>
        <time>2016-05-04T09:52:54Z</time>
      </trkpt>
      <trkpt lat="45.05285" lon="-0.48111">
        <ele>16</ele>
        <time>2016-05-04T09:52:59Z</time>
      </trkpt>
      <trkpt lat="45.05277" lon="-0.48105">
        <ele>16</ele>
        <time>2016-05-04T09:53:07Z</time>
      </trkpt>
      <trkpt lat="45.05276" lon="-0.48099">
        <ele>16</ele>
        <time>2016-05-04T09:53:10Z</time>
      </trkpt>
      <trkpt lat="45.05278" lon="-0.48075">
        <ele>16.96</ele>
        <time>2016-05-04T09:53:22Z</time>
      </trkpt>
      <trkpt lat="45.05291" lon="-0.4805">
        <ele>17.44</ele>
        <time>2016-05-04T09:53:40Z</time>
      </trkpt>
      <trkpt lat="45.05302" lon="-0.48025">
        <ele>17.92</ele>
        <time>2016-05-04T09:53:56Z</time>
      </trkpt>
      <trkpt lat="45.05317" lon="-0.48">
        <ele>18.4</ele>
        <time>2016-05-04T09:54:15Z</time>
      </trkpt>
      <trkpt lat="45.05332" lon="-0.47975">
        <ele>18.4</ele>
        <time>2016-05-04T09:54:34Z</time>
      </trkpt>
      <trkpt lat="45.05355" lon="-0.47958">
        <ele>17.92</ele>
        <time>2016-05-04T09:54:53Z</time>
      </trkpt>
      <trkpt lat="45.0538" lon="-0.47946">
        <ele>17.92</ele>
        <time>2016-05-04T09:55:13Z</time>
      </trkpt>
      <trkpt lat="45.054" lon="-0.47935">
        <ele>18.4</ele>
        <time>2016-05-04T09:55:31Z</time>
      </trkpt>
      <trkpt lat="45.05401" lon="-0.47934">
        <ele>18.4</ele>
        <time>2016-05-04T09:55:35Z</time>
      </trkpt>
      <trkpt lat="45.05403" lon="-0.47904">
        <ele>18.88</ele>
        <time>2016-05-04T09:55:53Z</time>
      </trkpt>
      <trkpt lat="45.05403" lon="-0.4787">
        <ele>18.88</ele>
        <time>2016-05-04T09:56:12Z</time>
      </trkpt>
      <trkpt lat="45.05402" lon="-0.47838">
        <ele>18.4</ele>
        <time>2016-05-04T09:56:30Z</time>
      </trkpt>
      <trkpt lat="45.05398" lon="-0.47805">
        <ele>18.4</ele>
        <time>2016-05-04T09:56:48Z</time>
      </trkpt>
      <trkpt lat="45.05391" lon="-0.47773">
        <ele>18.88</ele>
        <time>2016-05-04T09:57:07Z</time>
      </trkpt>
      <trkpt lat="45.05384" lon="-0.47744">
        <ele>18.4</ele>
        <time>2016-05-04T09:57:24Z</time>
      </trkpt>
      <trkpt lat="45.05377" lon="-0.47716">
        <ele>18.88</ele>
        <time>2016-05-04T09:57:41Z</time>
      </trkpt>
      <trkpt lat="45.05371" lon="-0.47688">
        <ele>19.36</ele>
        <time>2016-05-04T09:57:57Z</time>
      </trkpt>
      <trkpt lat="45.05368" lon="-0.47657">
        <ele>19.84</ele>
        <time>2016-05-04T09:58:14Z</time>
      </trkpt>
      <trkpt lat="45.05368" lon="-0.47622">
        <ele>20.32</ele>
        <time>2016-05-04T09:58:33Z</time>
      </trkpt>
      <trkpt lat="45.05366" lon="-0.47588">
        <ele>20.81</ele>
        <time>2016-05-04T09:58:52Z</time>
      </trkpt>
      <trkpt lat="45.05361" lon="-0.4756">
        <ele>20.81</ele>
        <time>2016-05-04T09:59:09Z</time>
      </trkpt>
      <trkpt lat="45.05358" lon="-0.47543">
        <ele>21.77</ele>
        <time>2016-05-04T09:59:25Z</time>
      </trkpt>
      <trkpt lat="45.05356" lon="-0.47542">
        <ele>21.29</ele>
        <time>2016-05-04T10:00:03Z</time>
      </trkpt>
      <trkpt lat="45.05356" lon="-0.47529">
        <ele>22.25</ele>
        <time>2016-05-04T10:00:21Z</time>
      </trkpt>
      <trkpt lat="45.05355" lon="-0.47522">
        <ele>22.25</ele>
        <time>2016-05-04T10:00:27Z</time>
      </trkpt>
      <trkpt lat="45.05336" lon="-0.47506">
        <ele>22.25</ele>
        <time>2016-05-04T10:00:46Z</time>
      </trkpt>
      <trkpt lat="45.05334" lon="-0.47503">
        <ele>22.25</ele>
        <time>2016-05-04T10:00:53Z</time>
      </trkpt>
      <trkpt lat="45.05321" lon="-0.47496">
        <ele>23.21</ele>
        <time>2016-05-04T10:01:06Z</time>
      </trkpt>
      <trkpt lat="45.05303" lon="-0.47479">
        <ele>21.77</ele>
        <time>2016-05-04T10:01:23Z</time>
      </trkpt>
      <trkpt lat="45.05287" lon="-0.47463">
        <ele>22.73</ele>
        <time>2016-05-04T10:01:39Z</time>
      </trkpt>
      <trkpt lat="45.0527" lon="-0.4745">
        <ele>20.81</ele>
        <time>2016-05-04T10:01:56Z</time>
      </trkpt>
      <trkpt lat="45.05265" lon="-0.47447">
        <ele>20.81</ele>
        <time>2016-05-04T10:02:00Z</time>
      </trkpt>
      <trkpt lat="45.05257" lon="-0.47441">
        <ele>20.32</ele>
        <time>2016-05-04T10:02:07Z</time>
      </trkpt>
      <trkpt lat="45.0524" lon="-0.47426">
        <ele>19.36</ele>
        <time>2016-05-04T10:02:23Z</time>
      </trkpt>
      <trkpt lat="45.05229" lon="-0.47421">
        <ele>18.88</ele>
        <time>2016-05-04T10:02:38Z</time>
      </trkpt>
      <trkpt lat="45.05227" lon="-0.4742">
        <ele>18.88</ele>
        <time>2016-05-04T10:02:51Z</time>
      </trkpt>
      <trkpt lat="45.05227" lon="-0.47419">
        <ele>18.88</ele>
        <time>2016-05-04T10:03:02Z</time>
      </trkpt>
      <trkpt lat="45.05213" lon="-0.47439">
        <ele>17.92</ele>
        <time>2016-05-04T10:03:21Z</time>
      </trkpt>
      <trkpt lat="45.05199" lon="-0.47458">
        <ele>17.44</ele>
        <time>2016-05-04T10:03:38Z</time>
      </trkpt>
      <trkpt lat="45.05184" lon="-0.47478">
        <ele>16.96</ele>
        <time>2016-05-04T10:03:55Z</time>
      </trkpt>
      <trkpt lat="45.05168" lon="-0.47503">
        <ele>16.96</ele>
        <time>2016-05-04T10:04:13Z</time>
      </trkpt>
      <trkpt lat="45.05155" lon="-0.47524">
        <ele>16.48</ele>
        <time>2016-05-04T10:04:29Z</time>
      </trkpt>
      <trkpt lat="45.05144" lon="-0.47543">
        <ele>16.48</ele>
        <time>2016-05-04T10:04:44Z</time>
      </trkpt>
      <trkpt lat="45.05135" lon="-0.47568">
        <ele>16</ele>
        <time>2016-05-04T10:05:01Z</time>
      </trkpt>
      <trkpt lat="45.05128" lon="-0.47597">
        <ele>15.52</ele>
        <time>2016-05-04T10:05:19Z</time>
      </trkpt>
      <trkpt lat="45.0512" lon="-0.47625">
        <ele>15.52</ele>
        <time>2016-05-04T10:05:35Z</time>
      </trkpt>
      <trkpt lat="45.05119" lon="-0.47652">
        <ele>15.52</ele>
        <time>2016-05-04T10:05:51Z</time>
      </trkpt>
      <trkpt lat="45.05117" lon="-0.47674">
        <ele>15.52</ele>
        <time>2016-05-04T10:06:07Z</time>
      </trkpt>
      <trkpt lat="45.05118" lon="-0.47686">
        <ele>15.04</ele>
        <time>2016-05-04T10:06:16Z</time>
      </trkpt>
      <trkpt lat="45.05117" lon="-0.47694">
        <ele>15.04</ele>
        <time>2016-05-04T10:06:21Z</time>
      </trkpt>
      <trkpt lat="45.05117" lon="-0.47723">
        <ele>14.56</ele>
        <time>2016-05-04T10:06:38Z</time>
      </trkpt>
      <trkpt lat="45.05113" lon="-0.47745">
        <ele>14.56</ele>
        <time>2016-05-04T10:06:52Z</time>
      </trkpt>
      <trkpt lat="45.05107" lon="-0.47774">
        <ele>13.6</ele>
        <time>2016-05-04T10:07:09Z</time>
      </trkpt>
      <trkpt lat="45.05101" lon="-0.478">
        <ele>13.12</ele>
        <time>2016-05-04T10:07:25Z</time>
      </trkpt>
      <trkpt lat="45.05092" lon="-0.4781">
        <ele>13.12</ele>
        <time>2016-05-04T10:07:39Z</time>
      </trkpt>
      <trkpt lat="45.05079" lon="-0.47817">
        <ele>13.12</ele>
        <time>2016-05-04T10:07:54Z</time>
      </trkpt>
      <trkpt lat="45.05077" lon="-0.47817">
        <ele>13.12</ele>
        <time>2016-05-04T10:07:56Z</time>
      </trkpt>
      <trkpt lat="45.05074" lon="-0.47818">
        <ele>13.12</ele>
        <time>2016-05-04T10:07:58Z</time>
      </trkpt>
      <trkpt lat="45.05062" lon="-0.47834">
        <ele>13.12</ele>
        <time>2016-05-04T10:08:14Z</time>
      </trkpt>
      <trkpt lat="45.05053" lon="-0.4785">
        <ele>13.12</ele>
        <time>2016-05-04T10:08:28Z</time>
      </trkpt>
      <trkpt lat="45.05053" lon="-0.47851">
        <ele>13.12</ele>
        <time>2016-05-04T10:08:29Z</time>
      </trkpt>
      <trkpt lat="45.05037" lon="-0.47863">
        <ele>13.12</ele>
        <time>2016-05-04T10:08:47Z</time>
      </trkpt>
      <trkpt lat="45.05018" lon="-0.47873">
        <ele>13.12</ele>
        <time>2016-05-04T10:09:03Z</time>
      </trkpt>
      <trkpt lat="45.05002" lon="-0.4788">
        <ele>13.12</ele>
        <time>2016-05-04T10:09:18Z</time>
      </trkpt>
      <trkpt lat="45.04994" lon="-0.47884">
        <ele>13.12</ele>
        <time>2016-05-04T10:09:34Z</time>
      </trkpt>
      <trkpt lat="45.04978" lon="-0.4789">
        <ele>13.12</ele>
        <time>2016-05-04T10:09:49Z</time>
      </trkpt>
      <trkpt lat="45.04968" lon="-0.47894">
        <ele>13.12</ele>
        <time>2016-05-04T10:10:03Z</time>
      </trkpt>
      <trkpt lat="45.04955" lon="-0.47895">
        <ele>13.12</ele>
        <time>2016-05-04T10:10:22Z</time>
      </trkpt>
      <trkpt lat="45.04948" lon="-0.47896">
        <ele>13.12</ele>
        <time>2016-05-04T10:10:34Z</time>
      </trkpt>
      <trkpt lat="45.04936" lon="-0.47898">
        <ele>13.12</ele>
        <time>2016-05-04T10:10:52Z</time>
      </trkpt>
      <trkpt lat="45.0492" lon="-0.47896">
        <ele>12.63</ele>
        <time>2016-05-04T10:11:08Z</time>
      </trkpt>
      <trkpt lat="45.04914" lon="-0.47892">
        <ele>12.63</ele>
        <time>2016-05-04T10:11:28Z</time>
      </trkpt>
      <trkpt lat="45.04908" lon="-0.47877">
        <ele>12.63</ele>
        <time>2016-05-04T10:11:43Z</time>
      </trkpt>
      <trkpt lat="45.04907" lon="-0.47873">
        <ele>12.63</ele>
        <time>2016-05-04T10:11:56Z</time>
      </trkpt>
      <trkpt lat="45.04904" lon="-0.47863">
        <ele>12.63</ele>
        <time>2016-05-04T10:12:15Z</time>
      </trkpt>
      <trkpt lat="45.04905" lon="-0.47859">
        <ele>12.15</ele>
        <time>2016-05-04T10:12:43Z</time>
      </trkpt>
      <trkpt lat="45.04905" lon="-0.47858">
        <ele>12.15</ele>
        <time>2016-05-04T10:13:06Z</time>
      </trkpt>
      <trkpt lat="45.04903" lon="-0.47857">
        <ele>12.15</ele>
        <time>2016-05-04T10:13:37Z</time>
      </trkpt>
      <trkpt lat="45.04904" lon="-0.47861">
        <ele>12.15</ele>
        <time>2016-05-04T10:14:07Z</time>
      </trkpt>
      <trkpt lat="45.04906" lon="-0.47866">
        <ele>12.15</ele>
        <time>2016-05-04T10:14:33Z</time>
      </trkpt>
      <trkpt lat="45.04913" lon="-0.47867">
        <ele>13.12</ele>
        <time>2016-05-04T10:15:14Z</time>
      </trkpt>
      <trkpt lat="45.04913" lon="-0.4787">
        <ele>13.12</ele>
        <time>2016-05-04T10:15:44Z</time>
      </trkpt>
      <trkpt lat="45.04908" lon="-0.47856">
        <ele>13.12</ele>
        <time>2016-05-04T10:15:59Z</time>
      </trkpt>
      <trkpt lat="45.04908" lon="-0.47841">
        <ele>13.12</ele>
        <time>2016-05-04T10:16:13Z</time>
      </trkpt>
      <trkpt lat="45.0491" lon="-0.47827">
        <ele>12.63</ele>
        <time>2016-05-04T10:16:26Z</time>
      </trkpt>
      <trkpt lat="45.04916" lon="-0.47812">
        <ele>12.63</ele>
        <time>2016-05-04T10:16:41Z</time>
      </trkpt>
      <trkpt lat="45.04922" lon="-0.47793">
        <ele>12.63</ele>
        <time>2016-05-04T10:16:57Z</time>
      </trkpt>
      <trkpt lat="45.0493" lon="-0.47775">
        <ele>12.63</ele>
        <time>2016-05-04T10:17:14Z</time>
      </trkpt>
      <trkpt lat="45.04936" lon="-0.47763">
        <ele>13.12</ele>
        <time>2016-05-04T10:17:28Z</time>
      </trkpt>
      <trkpt lat="45.04943" lon="-0.47751">
        <ele>13.12</ele>
        <time>2016-05-04T10:17:43Z</time>
      </trkpt>
      <trkpt lat="45.04946" lon="-0.47746">
        <ele>12.63</ele>
        <time>2016-05-04T10:18:01Z</time>
      </trkpt>
      <trkpt lat="45.04948" lon="-0.47731">
        <ele>12.63</ele>
        <time>2016-05-04T10:18:16Z</time>
      </trkpt>
      <trkpt lat="45.04952" lon="-0.47722">
        <ele>12.63</ele>
        <time>2016-05-04T10:18:32Z</time>
      </trkpt>
      <trkpt lat="45.04955" lon="-0.47722">
        <ele>12.63</ele>
        <time>2016-05-04T10:18:50Z</time>
      </trkpt>
      <trkpt lat="45.04956" lon="-0.47716">
        <ele>12.63</ele>
        <time>2016-05-04T10:19:07Z</time>
      </trkpt>
      <trkpt lat="45.04958" lon="-0.47712">
        <ele>12.63</ele>
        <time>2016-05-04T10:19:20Z</time>
      </trkpt>
      <trkpt lat="45.04958" lon="-0.47717">
        <ele>12.15</ele>
        <time>2016-05-04T10:19:32Z</time>
      </trkpt>
      <trkpt lat="45.04955" lon="-0.47718">
        <ele>12.15</ele>
        <time>2016-05-04T10:19:49Z</time>
      </trkpt>
      <trkpt lat="45.04957" lon="-0.47719">
        <ele>11.19</ele>
        <time>2016-05-04T10:19:57Z</time>
      </trkpt>
      <trkpt lat="45.04957" lon="-0.4772">
        <ele>11.19</ele>
        <time>2016-05-04T10:20:15Z</time>
      </trkpt>
      <trkpt lat="45.04959" lon="-0.47716">
        <ele>12.15</ele>
        <time>2016-05-04T10:20:27Z</time>
      </trkpt>
      <trkpt lat="45.04962" lon="-0.47711">
        <ele>12.15</ele>
        <time>2016-05-04T10:20:42Z</time>
      </trkpt>
      <trkpt lat="45.04967" lon="-0.47696">
        <ele>12.15</ele>
        <time>2016-05-04T10:20:56Z</time>
      </trkpt>
      <trkpt lat="45.0497" lon="-0.47689">
        <ele>12.15</ele>
        <time>2016-05-04T10:21:02Z</time>
      </trkpt>
      <trkpt lat="45.04975" lon="-0.47674">
        <ele>12.15</ele>
        <time>2016-05-04T10:21:16Z</time>
      </trkpt>
      <trkpt lat="45.04975" lon="-0.47668">
        <ele>12.15</ele>
        <time>2016-05-04T10:21:30Z</time>
      </trkpt>
      <trkpt lat="45.04975" lon="-0.47668">
        <ele>12.15</ele>
        <time>2016-05-04T10:21:51Z</time>
      </trkpt>
      <trkpt lat="45.04974" lon="-0.47667">
        <ele>11.67</ele>
        <time>2016-05-04T10:22:13Z</time>
      </trkpt>
      <trkpt lat="45.04975" lon="-0.47666">
        <ele>11.67</ele>
        <time>2016-05-04T10:22:48Z</time>
      </trkpt>
      <trkpt lat="45.04975" lon="-0.47665">
        <ele>11.67</ele>
        <time>2016-05-04T10:23:23Z</time>
      </trkpt>
      <trkpt lat="45.04977" lon="-0.47665">
        <ele>8.79</ele>
        <time>2016-05-04T10:23:40Z</time>
      </trkpt>
      <trkpt lat="45.04977" lon="-0.47665">
        <ele>10.23</ele>
        <time>2016-05-04T10:24:06Z</time>
      </trkpt>
      <trkpt lat="45.04976" lon="-0.47661">
        <ele>9.27</ele>
        <time>2016-05-04T10:24:17Z</time>
      </trkpt>
      <trkpt lat="45.04973" lon="-0.47661">
        <ele>8.79</ele>
        <time>2016-05-04T10:24:29Z</time>
      </trkpt>
      <trkpt lat="45.04973" lon="-0.47661">
        <ele>8.79</ele>
        <time>2016-05-04T10:24:39Z</time>
      </trkpt>
      <trkpt lat="45.04973" lon="-0.47663">
        <ele>10.71</ele>
        <time>2016-05-04T10:24:53Z</time>
      </trkpt>
      <trkpt lat="45.04971" lon="-0.47664">
        <ele>10.23</ele>
        <time>2016-05-04T10:24:58Z</time>
      </trkpt>
      <trkpt lat="45.04961" lon="-0.47666">
        <ele>10.23</ele>
        <time>2016-05-04T10:25:13Z</time>
      </trkpt>
      <trkpt lat="45.04958" lon="-0.47655">
        <ele>10.23</ele>
        <time>2016-05-04T10:25:27Z</time>
      </trkpt>
      <trkpt lat="45.04956" lon="-0.47648">
        <ele>10.23</ele>
        <time>2016-05-04T10:25:35Z</time>
      </trkpt>
      <trkpt lat="45.04953" lon="-0.47628">
        <ele>10.23</ele>
        <time>2016-05-04T10:25:51Z</time>
      </trkpt>
      <trkpt lat="45.04953" lon="-0.47626">
        <ele>10.23</ele>
        <time>2016-05-04T10:25:53Z</time>
      </trkpt>
      <trkpt lat="45.04953" lon="-0.47604">
        <ele>10.71</ele>
        <time>2016-05-04T10:26:08Z</time>
      </trkpt>
      <trkpt lat="45.04947" lon="-0.47589">
        <ele>10.71</ele>
        <time>2016-05-04T10:26:20Z</time>
      </trkpt>
      <trkpt lat="45.0494" lon="-0.47569">
        <ele>10.23</ele>
        <time>2016-05-04T10:26:35Z</time>
      </trkpt>
      <trkpt lat="45.04934" lon="-0.47554">
        <ele>10.23</ele>
        <time>2016-05-04T10:26:46Z</time>
      </trkpt>
      <trkpt lat="45.04933" lon="-0.47545">
        <ele>10.23</ele>
        <time>2016-05-04T10:26:52Z</time>
      </trkpt>
      <trkpt lat="45.04934" lon="-0.47541">
        <ele>10.23</ele>
        <time>2016-05-04T10:26:55Z</time>
      </trkpt>
      <trkpt lat="45.04932" lon="-0.47535">
        <ele>10.23</ele>
        <time>2016-05-04T10:26:59Z</time>
      </trkpt>
      <trkpt lat="45.04939" lon="-0.47511">
        <ele>10.71</ele>
        <time>2016-05-04T10:27:17Z</time>
      </trkpt>
      <trkpt lat="45.04943" lon="-0.47504">
        <ele>10.71</ele>
        <time>2016-05-04T10:27:31Z</time>
      </trkpt>
      <trkpt lat="45.04942" lon="-0.47501">
        <ele>10.23</ele>
        <time>2016-05-04T10:27:51Z</time>
      </trkpt>
      <trkpt lat="45.04941" lon="-0.47505">
        <ele>10.23</ele>
        <time>2016-05-04T10:28:01Z</time>
      </trkpt>
      <trkpt lat="45.04938" lon="-0.475">
        <ele>10.23</ele>
        <time>2016-05-04T10:28:14Z</time>
      </trkpt>
      <trkpt lat="45.04941" lon="-0.47495">
        <ele>10.23</ele>
        <time>2016-05-04T10:28:34Z</time>
      </trkpt>
      <trkpt lat="45.04938" lon="-0.47497">
        <ele>10.23</ele>
        <time>2016-05-04T10:28:46Z</time>
      </trkpt>
      <trkpt lat="45.04924" lon="-0.475">
        <ele>10.23</ele>
        <time>2016-05-04T10:29:02Z</time>
      </trkpt>
      <trkpt lat="45.0491" lon="-0.47496">
        <ele>9.75</ele>
        <time>2016-05-04T10:29:17Z</time>
      </trkpt>
      <trkpt lat="45.04898" lon="-0.47493">
        <ele>9.75</ele>
        <time>2016-05-04T10:29:30Z</time>
      </trkpt>
      <trkpt lat="45.04881" lon="-0.47483">
        <ele>9.75</ele>
        <time>2016-05-04T10:29:49Z</time>
      </trkpt>
      <trkpt lat="45.04866" lon="-0.47472">
        <ele>9.75</ele>
        <time>2016-05-04T10:30:07Z</time>
      </trkpt>
      <trkpt lat="45.04853" lon="-0.47462">
        <ele>9.75</ele>
        <time>2016-05-04T10:30:23Z</time>
      </trkpt>
      <trkpt lat="45.0484" lon="-0.47458">
        <ele>9.75</ele>
        <time>2016-05-04T10:30:38Z</time>
      </trkpt>
      <trkpt lat="45.04824" lon="-0.47448">
        <ele>9.75</ele>
        <time>2016-05-04T10:30:56Z</time>
      </trkpt>
      <trkpt lat="45.04807" lon="-0.47442">
        <ele>9.75</ele>
        <time>2016-05-04T10:31:13Z</time>
      </trkpt>
      <trkpt lat="45.04783" lon="-0.47441">
        <ele>9.75</ele>
        <time>2016-05-04T10:31:30Z</time>
      </trkpt>
      <trkpt lat="45.04777" lon="-0.47429">
        <ele>10.23</ele>
        <time>2016-05-04T10:31:44Z</time>
      </trkpt>
      <trkpt lat="45.04775" lon="-0.4743">
        <ele>10.71</ele>
        <time>2016-05-04T10:31:56Z</time>
      </trkpt>
      <trkpt lat="45.04772" lon="-0.47432">
        <ele>10.71</ele>
        <time>2016-05-04T10:32:10Z</time>
      </trkpt>
      <trkpt lat="45.04769" lon="-0.47434">
        <ele>11.19</ele>
        <time>2016-05-04T10:32:24Z</time>
      </trkpt>
      <trkpt lat="45.04769" lon="-0.47448">
        <ele>11.19</ele>
        <time>2016-05-04T10:32:39Z</time>
      </trkpt>
      <trkpt lat="45.04768" lon="-0.47466">
        <ele>11.67</ele>
        <time>2016-05-04T10:32:52Z</time>
      </trkpt>
      <trkpt lat="45.04764" lon="-0.47486">
        <ele>11.67</ele>
        <time>2016-05-04T10:33:05Z</time>
      </trkpt>
      <trkpt lat="45.04763" lon="-0.47491">
        <ele>11.67</ele>
        <time>2016-05-04T10:33:08Z</time>
      </trkpt>
      <trkpt lat="45.04756" lon="-0.47509">
        <ele>11.67</ele>
        <time>2016-05-04T10:33:24Z</time>
      </trkpt>
      <trkpt lat="45.04747" lon="-0.47518">
        <ele>12.15</ele>
        <time>2016-05-04T10:33:49Z</time>
      </trkpt>
      <trkpt lat="45.04746" lon="-0.47529">
        <ele>12.15</ele>
        <time>2016-05-04T10:34:05Z</time>
      </trkpt>
      <trkpt lat="45.04744" lon="-0.47542">
        <ele>12.15</ele>
        <time>2016-05-04T10:34:20Z</time>
      </trkpt>
      <trkpt lat="45.04744" lon="-0.47565">
        <ele>12.63</ele>
        <time>2016-05-04T10:34:36Z</time>
      </trkpt>
      <trkpt lat="45.0474" lon="-0.4759">
        <ele>12.63</ele>
        <time>2016-05-04T10:34:52Z</time>
      </trkpt>
      <trkpt lat="45.04739" lon="-0.47604">
        <ele>13.12</ele>
        <time>2016-05-04T10:35:05Z</time>
      </trkpt>
      <trkpt lat="45.04738" lon="-0.47621">
        <ele>13.12</ele>
        <time>2016-05-04T10:35:19Z</time>
      </trkpt>
      <trkpt lat="45.04741" lon="-0.47638">
        <ele>13.12</ele>
        <time>2016-05-04T10:35:36Z</time>
      </trkpt>
      <trkpt lat="45.04735" lon="-0.47646">
        <ele>13.6</ele>
        <time>2016-05-04T10:36:04Z</time>
      </trkpt>
      <trkpt lat="45.04738" lon="-0.47646">
        <ele>13.6</ele>
        <time>2016-05-04T10:36:48Z</time>
      </trkpt>
      <trkpt lat="45.04736" lon="-0.47645">
        <ele>13.6</ele>
        <time>2016-05-04T10:37:33Z</time>
      </trkpt>
      <trkpt lat="45.04734" lon="-0.47649">
        <ele>13.6</ele>
        <time>2016-05-04T10:38:04Z</time>
      </trkpt>
      <trkpt lat="45.04734" lon="-0.47652">
        <ele>13.6</ele>
        <time>2016-05-04T10:38:39Z</time>
      </trkpt>
      <trkpt lat="45.04732" lon="-0.47653">
        <ele>13.12</ele>
        <time>2016-05-04T10:39:05Z</time>
      </trkpt>
      <trkpt lat="45.04734" lon="-0.47655">
        <ele>13.12</ele>
        <time>2016-05-04T10:39:18Z</time>
      </trkpt>
      <trkpt lat="45.04735" lon="-0.47664">
        <ele>13.12</ele>
        <time>2016-05-04T10:39:43Z</time>
      </trkpt>
      <trkpt lat="45.04737" lon="-0.47686">
        <ele>13.12</ele>
        <time>2016-05-04T10:39:59Z</time>
      </trkpt>
      <trkpt lat="45.04738" lon="-0.47701">
        <ele>13.12</ele>
        <time>2016-05-04T10:40:08Z</time>
      </trkpt>
      <trkpt lat="45.04731" lon="-0.47731">
        <ele>13.12</ele>
        <time>2016-05-04T10:40:25Z</time>
      </trkpt>
      <trkpt lat="45.04728" lon="-0.47744">
        <ele>13.12</ele>
        <time>2016-05-04T10:40:34Z</time>
      </trkpt>
      <trkpt lat="45.04728" lon="-0.47767">
        <ele>13.6</ele>
        <time>2016-05-04T10:40:49Z</time>
      </trkpt>
      <trkpt lat="45.04728" lon="-0.47789">
        <ele>13.6</ele>
        <time>2016-05-04T10:41:02Z</time>
      </trkpt>
      <trkpt lat="45.0473" lon="-0.47818">
        <ele>13.6</ele>
        <time>2016-05-04T10:41:20Z</time>
      </trkpt>
      <trkpt lat="45.0473" lon="-0.47843">
        <ele>13.6</ele>
        <time>2016-05-04T10:41:35Z</time>
      </trkpt>
      <trkpt lat="45.04722" lon="-0.47874">
        <ele>14.08</ele>
        <time>2016-05-04T10:41:50Z</time>
      </trkpt>
      <trkpt lat="45.04715" lon="-0.47902">
        <ele>14.08</ele>
        <time>2016-05-04T10:42:06Z</time>
      </trkpt>
      <trkpt lat="45.04712" lon="-0.47911">
        <ele>14.08</ele>
        <time>2016-05-04T10:42:12Z</time>
      </trkpt>
      <trkpt lat="45.04704" lon="-0.47942">
        <ele>14.08</ele>
        <time>2016-05-04T10:42:29Z</time>
      </trkpt>
      <trkpt lat="45.04698" lon="-0.47972">
        <ele>14.08</ele>
        <time>2016-05-04T10:42:44Z</time>
      </trkpt>
      <trkpt lat="45.047" lon="-0.48002">
        <ele>14.56</ele>
        <time>2016-05-04T10:43:02Z</time>
      </trkpt>
      <trkpt lat="45.04699" lon="-0.48013">
        <ele>14.56</ele>
        <time>2016-05-04T10:43:08Z</time>
      </trkpt>
      <trkpt lat="45.04697" lon="-0.48016">
        <ele>14.56</ele>
        <time>2016-05-04T10:43:10Z</time>
      </trkpt>
      <trkpt lat="45.04687" lon="-0.4802">
        <ele>14.56</ele>
        <time>2016-05-04T10:43:23Z</time>
      </trkpt>
      <trkpt lat="45.04687" lon="-0.48021">
        <ele>15.04</ele>
        <time>2016-05-04T10:43:36Z</time>
      </trkpt>
      <trkpt lat="45.04685" lon="-0.48024">
        <ele>15.04</ele>
        <time>2016-05-04T10:43:55Z</time>
      </trkpt>
      <trkpt lat="45.04681" lon="-0.48025">
        <ele>15.04</ele>
        <time>2016-05-04T10:44:00Z</time>
      </trkpt>
      <trkpt lat="45.04676" lon="-0.48025">
        <ele>15.04</ele>
        <time>2016-05-04T10:44:20Z</time>
      </trkpt>
      <trkpt lat="45.04678" lon="-0.48026">
        <ele>14.56</ele>
        <time>2016-05-04T10:44:53Z</time>
      </trkpt>
      <trkpt lat="45.04674" lon="-0.48023">
        <ele>14.56</ele>
        <time>2016-05-04T10:45:17Z</time>
      </trkpt>
      <trkpt lat="45.04669" lon="-0.4802">
        <ele>14.56</ele>
        <time>2016-05-04T10:45:33Z</time>
      </trkpt>
      <trkpt lat="45.04661" lon="-0.48014">
        <ele>14.56</ele>
        <time>2016-05-04T10:45:47Z</time>
      </trkpt>
      <trkpt lat="45.04656" lon="-0.4801">
        <ele>14.56</ele>
        <time>2016-05-04T10:45:53Z</time>
      </trkpt>
      <trkpt lat="45.04654" lon="-0.48009">
        <ele>14.56</ele>
        <time>2016-05-04T10:45:55Z</time>
      </trkpt>
      <trkpt lat="45.04637" lon="-0.47993">
        <ele>14.08</ele>
        <time>2016-05-04T10:46:13Z</time>
      </trkpt>
      <trkpt lat="45.04625" lon="-0.47978">
        <ele>14.08</ele>
        <time>2016-05-04T10:46:30Z</time>
      </trkpt>
      <trkpt lat="45.04623" lon="-0.47975">
        <ele>14.08</ele>
        <time>2016-05-04T10:46:37Z</time>
      </trkpt>
      <trkpt lat="45.04609" lon="-0.47962">
        <ele>14.08</ele>
        <time>2016-05-04T10:46:52Z</time>
      </trkpt>
      <trkpt lat="45.04594" lon="-0.47949">
        <ele>14.08</ele>
        <time>2016-05-04T10:47:07Z</time>
      </trkpt>
      <trkpt lat="45.04572" lon="-0.47928">
        <ele>14.08</ele>
        <time>2016-05-04T10:47:28Z</time>
      </trkpt>
      <trkpt lat="45.04554" lon="-0.47913">
        <ele>14.08</ele>
        <time>2016-05-04T10:47:44Z</time>
      </trkpt>
      <trkpt lat="45.04537" lon="-0.47898">
        <ele>14.08</ele>
        <time>2016-05-04T10:48:00Z</time>
      </trkpt>
      <trkpt lat="45.04528" lon="-0.47895">
        <ele>14.08</ele>
        <time>2016-05-04T10:48:07Z</time>
      </trkpt>
      <trkpt lat="45.04512" lon="-0.47915">
        <ele>14.08</ele>
        <time>2016-05-04T10:48:24Z</time>
      </trkpt>
      <trkpt lat="45.04495" lon="-0.47924">
        <ele>14.08</ele>
        <time>2016-05-04T10:48:40Z</time>
      </trkpt>
      <trkpt lat="45.0448" lon="-0.47918">
        <ele>14.56</ele>
        <time>2016-05-04T10:48:55Z</time>
      </trkpt>
      <trkpt lat="45.04476" lon="-0.47922">
        <ele>14.08</ele>
        <time>2016-05-04T10:48:59Z</time>
      </trkpt>
      <trkpt lat="45.04463" lon="-0.47942">
        <ele>14.08</ele>
        <time>2016-05-04T10:49:16Z</time>
      </trkpt>
      <trkpt lat="45.04462" lon="-0.47948">
        <ele>14.56</ele>
        <time>2016-05-04T10:49:30Z</time>
      </trkpt>
      <trkpt lat="45.04461" lon="-0.47948">
        <ele>14.56</ele>
        <time>2016-05-04T10:49:37Z</time>
      </trkpt>
      <trkpt lat="45.04454" lon="-0.4796">
        <ele>14.56</ele>
        <time>2016-05-04T10:49:47Z</time>
      </trkpt>
      <trkpt lat="45.04438" lon="-0.47986">
        <ele>14.56</ele>
        <time>2016-05-04T10:50:08Z</time>
      </trkpt>
      <trkpt lat="45.04424" lon="-0.48009">
        <ele>14.56</ele>
        <time>2016-05-04T10:50:26Z</time>
      </trkpt>
      <trkpt lat="45.04412" lon="-0.48022">
        <ele>14.56</ele>
        <time>2016-05-04T10:50:41Z</time>
      </trkpt>
      <trkpt lat="45.04409" lon="-0.48024">
        <ele>14.08</ele>
        <time>2016-05-04T10:50:44Z</time>
      </trkpt>
      <trkpt lat="45.04392" lon="-0.4805">
        <ele>14.08</ele>
        <time>2016-05-04T10:51:04Z</time>
      </trkpt>
      <trkpt lat="45.04377" lon="-0.48075">
        <ele>14.08</ele>
        <time>2016-05-04T10:51:22Z</time>
      </trkpt>
      <trkpt lat="45.04362" lon="-0.48101">
        <ele>14.56</ele>
        <time>2016-05-04T10:51:40Z</time>
      </trkpt>
      <trkpt lat="45.04357" lon="-0.48108">
        <ele>14.56</ele>
        <time>2016-05-04T10:51:46Z</time>
      </trkpt>
      <trkpt lat="45.04337" lon="-0.48124">
        <ele>14.56</ele>
        <time>2016-05-04T10:52:05Z</time>
      </trkpt>
      <trkpt lat="45.04317" lon="-0.48126">
        <ele>14.56</ele>
        <time>2016-05-04T10:52:20Z</time>
      </trkpt>
      <trkpt lat="45.04304" lon="-0.48109">
        <ele>15.52</ele>
        <time>2016-05-04T10:52:35Z</time>
      </trkpt>
      <trkpt lat="45.04287" lon="-0.4808">
        <ele>16.48</ele>
        <time>2016-05-04T10:52:54Z</time>
      </trkpt>
      <trkpt lat="45.04274" lon="-0.48054">
        <ele>17.92</ele>
        <time>2016-05-04T10:53:11Z</time>
      </trkpt>
      <trkpt lat="45.04264" lon="-0.48035">
        <ele>19.36</ele>
        <time>2016-05-04T10:53:28Z</time>
      </trkpt>
      <trkpt lat="45.04257" lon="-0.48021">
        <ele>20.32</ele>
        <time>2016-05-04T10:53:43Z</time>
      </trkpt>
      <trkpt lat="45.04248" lon="-0.4801">
        <ele>21.29</ele>
        <time>2016-05-04T10:53:54Z</time>
      </trkpt>
      <trkpt lat="45.0423" lon="-0.4802">
        <ele>22.25</ele>
        <time>2016-05-04T10:54:13Z</time>
      </trkpt>
      <trkpt lat="45.04219" lon="-0.48028">
        <ele>22.25</ele>
        <time>2016-05-04T10:54:25Z</time>
      </trkpt>
      <trkpt lat="45.04201" lon="-0.48039">
        <ele>22.25</ele>
        <time>2016-05-04T10:54:41Z</time>
      </trkpt>
      <trkpt lat="45.04179" lon="-0.48054">
        <ele>23.21</ele>
        <time>2016-05-04T10:54:59Z</time>
      </trkpt>
      <trkpt lat="45.04157" lon="-0.48068">
        <ele>23.21</ele>
        <time>2016-05-04T10:55:18Z</time>
      </trkpt>
      <trkpt lat="45.04137" lon="-0.48083">
        <ele>23.21</ele>
        <time>2016-05-04T10:55:36Z</time>
      </trkpt>
      <trkpt lat="45.04116" lon="-0.48095">
        <ele>24.65</ele>
        <time>2016-05-04T10:55:54Z</time>
      </trkpt>
      <trkpt lat="45.04095" lon="-0.48111">
        <ele>25.13</ele>
        <time>2016-05-04T10:56:13Z</time>
      </trkpt>
      <trkpt lat="45.04082" lon="-0.48112">
        <ele>26.09</ele>
        <time>2016-05-04T10:56:27Z</time>
      </trkpt>
      <trkpt lat="45.04081" lon="-0.48105">
        <ele>26.09</ele>
        <time>2016-05-04T10:56:43Z</time>
      </trkpt>
      <trkpt lat="45.04086" lon="-0.48087">
        <ele>26.09</ele>
        <time>2016-05-04T10:56:57Z</time>
      </trkpt>
      <trkpt lat="45.04095" lon="-0.48063">
        <ele>26.09</ele>
        <time>2016-05-04T10:57:14Z</time>
      </trkpt>
      <trkpt lat="45.04103" lon="-0.48038">
        <ele>26.09</ele>
        <time>2016-05-04T10:57:31Z</time>
      </trkpt>
      <trkpt lat="45.04112" lon="-0.48012">
        <ele>25.61</ele>
        <time>2016-05-04T10:57:48Z</time>
      </trkpt>
      <trkpt lat="45.04116" lon="-0.47997">
        <ele>25.61</ele>
        <time>2016-05-04T10:57:58Z</time>
      </trkpt>
      <trkpt lat="45.04124" lon="-0.47972">
        <ele>24.17</ele>
        <time>2016-05-04T10:58:13Z</time>
      </trkpt>
      <trkpt lat="45.04132" lon="-0.47939">
        <ele>23.69</ele>
        <time>2016-05-04T10:58:33Z</time>
      </trkpt>
      <trkpt lat="45.04132" lon="-0.47937">
        <ele>23.69</ele>
        <time>2016-05-04T10:58:34Z</time>
      </trkpt>
      <trkpt lat="45.04142" lon="-0.47909">
        <ele>23.21</ele>
        <time>2016-05-04T10:58:52Z</time>
      </trkpt>
      <trkpt lat="45.04155" lon="-0.47875">
        <ele>22.73</ele>
        <time>2016-05-04T10:59:12Z</time>
      </trkpt>
      <trkpt lat="45.04169" lon="-0.47847">
        <ele>21.77</ele>
        <time>2016-05-04T10:59:31Z</time>
      </trkpt>
      <trkpt lat="45.04182" lon="-0.4782">
        <ele>21.29</ele>
        <time>2016-05-04T10:59:50Z</time>
      </trkpt>
      <trkpt lat="45.0419" lon="-0.47802">
        <ele>20.81</ele>
        <time>2016-05-04T11:00:02Z</time>
      </trkpt>
      <trkpt lat="45.04191" lon="-0.47797">
        <ele>20.81</ele>
        <time>2016-05-04T11:00:06Z</time>
      </trkpt>
      <trkpt lat="45.04198" lon="-0.47778">
        <ele>20.32</ele>
        <time>2016-05-04T11:00:18Z</time>
      </trkpt>
      <trkpt lat="45.04193" lon="-0.47774">
        <ele>19.84</ele>
        <time>2016-05-04T11:00:23Z</time>
      </trkpt>
      <trkpt lat="45.04171" lon="-0.47778">
        <ele>19.84</ele>
        <time>2016-05-04T11:00:42Z</time>
      </trkpt>
      <trkpt lat="45.04149" lon="-0.47775">
        <ele>20.81</ele>
        <time>2016-05-04T11:01:00Z</time>
      </trkpt>
      <trkpt lat="45.0413" lon="-0.47773">
        <ele>21.29</ele>
        <time>2016-05-04T11:01:15Z</time>
      </trkpt>
      <trkpt lat="45.04108" lon="-0.47777">
        <ele>21.29</ele>
        <time>2016-05-04T11:01:32Z</time>
      </trkpt>
      <trkpt lat="45.0408" lon="-0.47789">
        <ele>22.25</ele>
        <time>2016-05-04T11:01:54Z</time>
      </trkpt>
      <trkpt lat="45.04058" lon="-0.47801">
        <ele>22.73</ele>
        <time>2016-05-04T11:02:13Z</time>
      </trkpt>
      <trkpt lat="45.04039" lon="-0.47811">
        <ele>23.69</ele>
        <time>2016-05-04T11:02:30Z</time>
      </trkpt>
      <trkpt lat="45.0402" lon="-0.47821">
        <ele>24.17</ele>
        <time>2016-05-04T11:02:46Z</time>
      </trkpt>
      <trkpt lat="45.03994" lon="-0.47833">
        <ele>25.61</ele>
        <time>2016-05-04T11:03:07Z</time>
      </trkpt>
      <trkpt lat="45.0397" lon="-0.47842">
        <ele>25.61</ele>
        <time>2016-05-04T11:03:27Z</time>
      </trkpt>
      <trkpt lat="45.03946" lon="-0.47849">
        <ele>26.57</ele>
        <time>2016-05-04T11:03:46Z</time>
      </trkpt>
      <trkpt lat="45.03927" lon="-0.47858">
        <ele>26.57</ele>
        <time>2016-05-04T11:04:02Z</time>
      </trkpt>
      <trkpt lat="45.03919" lon="-0.4786">
        <ele>27.05</ele>
        <time>2016-05-04T11:04:17Z</time>
      </trkpt>
      <trkpt lat="45.03919" lon="-0.4786">
        <ele>27.05</ele>
        <time>2016-05-04T11:04:19Z</time>
      </trkpt>
      <trkpt lat="45.03916" lon="-0.47851">
        <ele>27.05</ele>
        <time>2016-05-04T11:04:26Z</time>
      </trkpt>
      <trkpt lat="45.03919" lon="-0.47823">
        <ele>27.05</ele>
        <time>2016-05-04T11:04:43Z</time>
      </trkpt>
      <trkpt lat="45.03913" lon="-0.47798">
        <ele>27.05</ele>
        <time>2016-05-04T11:04:59Z</time>
      </trkpt>
      <trkpt lat="45.03899" lon="-0.47772">
        <ele>27.53</ele>
        <time>2016-05-04T11:05:17Z</time>
      </trkpt>
      <trkpt lat="45.03881" lon="-0.47761">
        <ele>28.02</ele>
        <time>2016-05-04T11:05:33Z</time>
      </trkpt>
      <trkpt lat="45.03873" lon="-0.47759">
        <ele>28.98</ele>
        <time>2016-05-04T11:05:44Z</time>
      </trkpt>
      <trkpt lat="45.0386" lon="-0.47745">
        <ele>29.94</ele>
        <time>2016-05-04T11:06:00Z</time>
      </trkpt>
      <trkpt lat="45.03849" lon="-0.47718">
        <ele>30.42</ele>
        <time>2016-05-04T11:06:18Z</time>
      </trkpt>
      <trkpt lat="45.03839" lon="-0.4769">
        <ele>30.42</ele>
        <time>2016-05-04T11:06:35Z</time>
      </trkpt>
      <trkpt lat="45.03829" lon="-0.47655">
        <ele>29.94</ele>
        <time>2016-05-04T11:06:56Z</time>
      </trkpt>
      <trkpt lat="45.0382" lon="-0.47628">
        <ele>29.94</ele>
        <time>2016-05-04T11:07:13Z</time>
      </trkpt>
      <trkpt lat="45.03813" lon="-0.47601">
        <ele>29.94</ele>
        <time>2016-05-04T11:07:29Z</time>
      </trkpt>
      <trkpt lat="45.03805" lon="-0.47578">
        <ele>29.94</ele>
        <time>2016-05-04T11:07:44Z</time>
      </trkpt>
      <trkpt lat="45.03796" lon="-0.4755">
        <ele>29.94</ele>
        <time>2016-05-04T11:08:02Z</time>
      </trkpt>
      <trkpt lat="45.03788" lon="-0.47522">
        <ele>29.46</ele>
        <time>2016-05-04T11:08:19Z</time>
      </trkpt>
      <trkpt lat="45.0378" lon="-0.47497">
        <ele>29.46</ele>
        <time>2016-05-04T11:08:36Z</time>
      </trkpt>
      <trkpt lat="45.0377" lon="-0.47467">
        <ele>30.42</ele>
        <time>2016-05-04T11:08:55Z</time>
      </trkpt>
      <trkpt lat="45.03761" lon="-0.47438">
        <ele>30.42</ele>
        <time>2016-05-04T11:09:13Z</time>
      </trkpt>
      <trkpt lat="45.03752" lon="-0.47414">
        <ele>30.42</ele>
        <time>2016-05-04T11:09:29Z</time>
      </trkpt>
      <trkpt lat="45.03744" lon="-0.47386">
        <ele>30.42</ele>
        <time>2016-05-04T11:09:46Z</time>
      </trkpt>
      <trkpt lat="45.03735" lon="-0.47358">
        <ele>30.9</ele>
        <time>2016-05-04T11:10:04Z</time>
      </trkpt>
      <trkpt lat="45.03726" lon="-0.47332">
        <ele>30.42</ele>
        <time>2016-05-04T11:10:21Z</time>
      </trkpt>
      <trkpt lat="45.03719" lon="-0.47307">
        <ele>30.42</ele>
        <time>2016-05-04T11:10:38Z</time>
      </trkpt>
      <trkpt lat="45.03716" lon="-0.47301">
        <ele>30.42</ele>
        <time>2016-05-04T11:10:43Z</time>
      </trkpt>
      <trkpt lat="45.0371" lon="-0.47291">
        <ele>30.42</ele>
        <time>2016-05-04T11:10:52Z</time>
      </trkpt>
      <trkpt lat="45.03692" lon="-0.47297">
        <ele>30.42</ele>
        <time>2016-05-04T11:11:09Z</time>
      </trkpt>
      <trkpt lat="45.03671" lon="-0.47306">
        <ele>30.42</ele>
        <time>2016-05-04T11:11:27Z</time>
      </trkpt>
      <trkpt lat="45.03647" lon="-0.47318">
        <ele>30.42</ele>
        <time>2016-05-04T11:11:46Z</time>
      </trkpt>
      <trkpt lat="45.03627" lon="-0.4733">
        <ele>31.38</ele>
        <time>2016-05-04T11:12:04Z</time>
      </trkpt>
      <trkpt lat="45.03603" lon="-0.47343">
        <ele>31.86</ele>
        <time>2016-05-04T11:12:23Z</time>
      </trkpt>
      <trkpt lat="45.03578" lon="-0.47355">
        <ele>32.34</ele>
        <time>2016-05-04T11:12:42Z</time>
      </trkpt>
      <trkpt lat="45.03573" lon="-0.47357">
        <ele>33.78</ele>
        <time>2016-05-04T11:12:47Z</time>
      </trkpt>
      <trkpt lat="45.03569" lon="-0.47352">
        <ele>33.78</ele>
        <time>2016-05-04T11:12:52Z</time>
      </trkpt>
      <trkpt lat="45.03562" lon="-0.47339">
        <ele>34.26</ele>
        <time>2016-05-04T11:13:07Z</time>
      </trkpt>
      <trkpt lat="45.03551" lon="-0.47313">
        <ele>34.26</ele>
        <time>2016-05-04T11:13:24Z</time>
      </trkpt>
      <trkpt lat="45.0354" lon="-0.47289">
        <ele>34.26</ele>
        <time>2016-05-04T11:13:40Z</time>
      </trkpt>
      <trkpt lat="45.03539" lon="-0.47288">
        <ele>34.26</ele>
        <time>2016-05-04T11:13:41Z</time>
      </trkpt>
      <trkpt lat="45.03525" lon="-0.47262">
        <ele>34.26</ele>
        <time>2016-05-04T11:14:00Z</time>
      </trkpt>
      <trkpt lat="45.03519" lon="-0.47232">
        <ele>34.26</ele>
        <time>2016-05-04T11:14:18Z</time>
      </trkpt>
      <trkpt lat="45.03518" lon="-0.47219">
        <ele>34.26</ele>
        <time>2016-05-04T11:14:36Z</time>
      </trkpt>
      <trkpt lat="45.03517" lon="-0.47216">
        <ele>34.26</ele>
        <time>2016-05-04T11:14:45Z</time>
      </trkpt>
      <trkpt lat="45.03516" lon="-0.47214">
        <ele>34.26</ele>
        <time>2016-05-04T11:14:47Z</time>
      </trkpt>
      <trkpt lat="45.03514" lon="-0.47202">
        <ele>34.26</ele>
        <time>2016-05-04T11:15:01Z</time>
      </trkpt>
      <trkpt lat="45.03512" lon="-0.47187">
        <ele>34.74</ele>
        <time>2016-05-04T11:15:15Z</time>
      </trkpt>
      <trkpt lat="45.03508" lon="-0.47164">
        <ele>35.23</ele>
        <time>2016-05-04T11:15:30Z</time>
      </trkpt>
      <trkpt lat="45.035" lon="-0.4714">
        <ele>36.19</ele>
        <time>2016-05-04T11:15:46Z</time>
      </trkpt>
      <trkpt lat="45.03488" lon="-0.47119">
        <ele>36.19</ele>
        <time>2016-05-04T11:16:02Z</time>
      </trkpt>
      <trkpt lat="45.03477" lon="-0.47104">
        <ele>36.67</ele>
        <time>2016-05-04T11:16:18Z</time>
      </trkpt>
      <trkpt lat="45.03467" lon="-0.47099">
        <ele>36.67</ele>
        <time>2016-05-04T11:16:31Z</time>
      </trkpt>
      <trkpt lat="45.03466" lon="-0.47096">
        <ele>37.15</ele>
        <time>2016-05-04T11:16:46Z</time>
      </trkpt>
      <trkpt lat="45.03464" lon="-0.47096">
        <ele>37.15</ele>
        <time>2016-05-04T11:17:12Z</time>
      </trkpt>
      <trkpt lat="45.03464" lon="-0.47098">
        <ele>37.15</ele>
        <time>2016-05-04T11:17:30Z</time>
      </trkpt>
      <trkpt lat="45.03466" lon="-0.47099">
        <ele>36.67</ele>
        <time>2016-05-04T11:17:59Z</time>
      </trkpt>
      <trkpt lat="45.03466" lon="-0.47099">
        <ele>36.67</ele>
        <time>2016-05-04T11:18:01Z</time>
      </trkpt>
    </trkseg>
  </trk>
</gpx>